5ちゃんねる ★スマホ版★ ■掲示板に戻る■ 全部 1- 最新50  

■ このスレッドは過去ログ倉庫に格納されています

新潟の気象について語るスレ

1 :名無しSUN:04/10/25 11:43:07 ID:YxYvOSsP
一日でも早い復興を願いながら語りましょう。
震源地に近いアメダスポイントの十日町、長岡、柏崎
中心に心配しながら語りましょう。

2 :2:04/10/25 11:43:33 ID:ptM0rtQz
2としか言いようがない。

3 :4様:04/10/25 11:50:26 ID:4vWbjNhj
私が4様です

4 :名無しSUN:04/10/25 12:22:09 ID:cispApwz
よんちゃま

5 :名無しSUN:04/10/25 17:48:30 ID:uSqpoumx
3時間で5ミリで大雨注意報はありえない雨が降るときは絶対出る

6 :名無しSUN:04/10/25 18:02:57 ID:MZ6Ibqy4
明日夕方までに予想される雨量は、多いところで25mmに達する見通し by NHK

7 :名無しSUN:04/10/25 19:34:13 ID:IJwBBHe5
>>5 それが目的。

8 :名無しSUN:04/11/12 11:00:42 ID:KitzgdsR
10月24日〜11月11日の19日間に観測される平年の雨量:143.7_
今年の同期間に観測された降水量:75_
まだ不幸中の幸いですな

9 :名無しSUN:04/11/12 11:01:06 ID:KitzgdsR
↑は長岡での話でした

10 :チェ・10:04/12/10 17:42:41 ID:sW3QY4kt
私はチェ・10です。

11 :名無しSUN:2005/04/23(土) 00:02:28 ID:KCaaySlx
http://www.tenki.jp/rdr/r0.html
http://www.tenki.jp/rdr/r3.html
この中越地区だけにある雲
なんなんだ?

12 :名無しSUN:2005/05/18(水) 01:17:17 ID:hhHbvs9L
アルゴスの資料、最近週間資料とか横向きになってて萎える

13 :名無しSUN:2005/05/18(水) 01:19:55 ID:hhHbvs9L
おいちょっと、中越豪雪だったというのに冬の書き込みなしかよw

14 :名無しSUN:2005/06/27(月) 09:28:40 ID:+WoxLuPX
結構な雨が降ってるのでage

15 :名無しSUN:2005/06/27(月) 11:50:41 ID:Cw4mcadD
http://www.jma.go.jp/JMA_HP/jp/kishojoho/zenkoku/093059103.html

16 :名無しSUN:2005/06/27(月) 21:04:24 ID:wOybrZEq
大雨洪水警報あげ

17 :名無しSUN:2005/06/27(月) 21:52:22 ID:ptTjae2f
また堤防破れないと良いけどねぇage

18 :NAGAOKA_SUN ◆alGvzOYUKI :2005/06/27(月) 22:24:34 ID:dW5w4Zzk
昨年の7.13と天気図が極似
集中しないことを祈る。

19 :名無しSUN:2005/06/27(月) 22:48:06 ID:IuSkOTQC
新潟市、雨降ってます。
>>18
マジ? なんかテレビでは羽越豪雨と似てるとか・・

20 :名無しSUN:2005/06/27(月) 22:50:17 ID:IuSkOTQC
NHKキター

21 :名無しSUN:2005/06/27(月) 22:54:47 ID:qA8aVzE5
若干下越よりだな
でも中越も結構強い雨が降っている地点が出てきている

22 :名無しSUN:2005/06/27(月) 23:57:27 ID:oljs+MaI
結構降ってるね。

23 :三条市民:2005/06/28(火) 00:05:25 ID:MLB5FCl5
雨の音が怖い!
どうするばいい?荷物まとめきれない…
仮設に住んでるからなおさら怖い。

24 :名無しSUN:2005/06/28(火) 00:11:00 ID:lp+6tsf+
旧山古志村か?ガンガレ!

25 :名無しSUN:2005/06/28(火) 00:21:50 ID:54QWp0mi
新潟市内、けっこう雨激しいっす。明日の朝までに落ち着いてくれるといいなー。

>>23
三条ということは、もしかして地震の被災者じゃなく
昨年の7.13水害で被害に遭われてまだ仮設にお住まいの方でしょうか?
気象情報に気をつけて、気をしっかり持ってガンガレ!

26 :NAGAOKA_SUN ◆alGvzOYUKI :2005/06/28(火) 00:32:02 ID:rJnL5m6D
>>23
今のところ三条五十嵐川流域はそれほど降ってないので
すぐに危険にさらされる心配はありませんが
今後の前線の動きには注意しておいた方がいいですね。
http://www.bosaijoho.go.jp/radar.html
これなんかのレーダーとアメダスの雨量情報を注視していきましょう。
下田辺りで累積100mmを越えたら少し警戒を強めてください。
ちなみに昨年は半日くらいで下田・栃尾で300〜400mm降りました。

27 :23:2005/06/28(火) 00:34:41 ID:MLB5FCl5
>>24さん
それが私は三条市民なのです、昨年の水害で。。
でもガンガレ!との励ましありがとうございます(つД`)

>>25さん
そうです、7・13水害のです。
励ましありがとうございます!とりあえず冷静にならなければですね。。
新潟といえば、ついさっき新発田で避難勧告出てましたね。
そちらもどうか気を付けて!

28 :名無しSUN:2005/06/28(火) 00:38:36 ID:5f+wWDV1
このあたりの方はとりあえず要注意で
ttp://www.river.go.jp/jsp/mapFrame/MapC100.jsp?longitude=139.35.43&latitude=38.00.15&scale=2&time=&position=C100
地図拡大すると河川水位や雨量データ見れる。


29 :23:2005/06/28(火) 00:43:11 ID:MLB5FCl5
>>26さん
情報ありがとうございます!なるほど、下田を目安に注意した方がいいのですね。
累積100mm越えで警戒、気を付けます。
昨年は下田と栃尾でそんなに降ったのですか…改めて水は怖いですね・
わざわざ詳しい情報をありがたうございました!

30 :名無しSUN:2005/06/28(火) 01:46:11 ID:M6EdQiAM
なんか、衛星写真の雲の流れが7・13と似てない?
去年から偏西風が偏りっぱなしつーことか?

31 :名無しSUN:2005/06/28(火) 02:00:27 ID:LEBYzKE6
新発田の山添に避難勧告。加治川がやばいのか

32 :名無しSUN:2005/06/28(火) 02:03:11 ID:rivt0mbn
日本横断中の梅雨前線に向かって
南の高気圧の縁をそうように暖湿な空気が送り込まれてる
7.13水害のときも同じ状況だった
確か、この状況、湿舌とか言ってた

33 :名無しSUN:2005/06/28(火) 02:39:56 ID:xjYgeUyE
近日中に巨大地震または巨大津波が発生するだろう。

34 :名無しSUN:2005/06/28(火) 02:44:42 ID:MLB5FCl5
携帯からのせいかまちBBSに書き込めない…
三条市民の方いらっしゃいます?

笠堀ダムの洪水流入量超えましたね。
一新橋の1時間ごとの水位上昇率がはんぱじゃない。
心配で寝れない(つД`)

35 :名無しSUN:2005/06/28(火) 02:44:47 ID:5vyYBBQe
>>23
私も三条市民です。
怖すぎて、初めてこの板にやって参りました。
既出ですが、三条で雨が降るより、山(ダム)で降られる方が危ないみたいですね。
もうやだorz

36 :名無しSUN:2005/06/28(火) 02:47:58 ID:PDJy2CbM
わたしも三条市民です
雨の音が激しくなってますよー
怖すぎです

37 :名無しSUN:2005/06/28(火) 02:55:29 ID:5vyYBBQe
>>34
携帯からですと、まちBBSはあまり閲覧できませんよね。
笠堀、大丈夫なのでしょうか。
心配で眠れませんよね。
>>36
冬時よりも風が強いんじゃないかってくらい、音がすごいですよね!

38 :名無しSUN:2005/06/28(火) 02:57:26 ID:xjYgeUyE
又、新潟大水害と巨大地震発生するだろう。

39 :名無しSUN:2005/06/28(火) 02:58:12 ID:MLB5FCl5
>>35さん
おおっ、>>34を書いてたらニアミス!
三条市民の方がいらっしゃって嬉しいです。
確かに、ダムの放流量でこっちの河川水位にかなりの影響が出ますよね。
昨年もそうだったし…orz
お互い気をしっかり持つしかないですね。避難勧告?に備えておきましょう。。

>>36さん
何げに三条市民の方がいらっしゃるんですね!嬉しいです。
どんどん激しくなってきてますよね…
夜中3時が危ないってのはやっぱり本当なのでしょうか。。

40 :名無しSUN:2005/06/28(火) 03:01:27 ID:xjYgeUyE
近日中に巨大地震または巨大津波が発生するだろう。

41 :名無しSUN:2005/06/28(火) 03:07:15 ID:MASkVwd5
>>34
笠堀ダム等の水位や流量はどこで見られますか?

42 :名無しSUN:2005/06/28(火) 03:11:55 ID:Ahg+ji0a
ttp://doboku-bousai.pref.niigata.jp/kasen/main.html?fnm=openMap&no=2&no2=0
>>41

43 :名無しSUN:2005/06/28(火) 03:12:24 ID:PDJy2CbM
新発田で避難勧告が出たとか
新発田から三条に越してきたばかりなのにこの雨ですよ
赤ちゃんもいるのに
ものすごく不安です

逃げるっていってもどこに逃げたらいいやら

44 :名無しSUN:2005/06/28(火) 03:13:43 ID:MLB5FCl5
>>41さん
http://doboku-bousai.pref.niigata.jp/kasen/
ここです。
携帯ならhttp://doboku-bousai.pref.niigata.jp/kasen_m/へドゾー。
いったん30分くらい眠りますノシ
また書き込みますー。

45 :名無しSUN:2005/06/28(火) 03:19:49 ID:MASkVwd5
>>42 >>44 ありがとう見られました。
ダムはまだまだ余裕があるけど、ダム操作と関係なく
下流水位が上がることも多いので御注意を。

46 :名無しSUN:2005/06/28(火) 03:20:43 ID:MLB5FCl5
あ、>>42さんの方が飛びやすい!2>>42さんのURLの方から見て下さいな。

>>43さん
それは大変ですね…
三条市はお住まいが嵐南地区でしたら避難場所が比較的多いかと思われます。
赤ちゃんと一緒に頑張って下さい。。

47 :名無しSUN:2005/06/28(火) 03:24:36 ID:5vyYBBQe
市役所の方も敏感になっているらしく、対策を練っている様です。

>>44さん
>>41さんではありませんが、ご親切にありがとうございます。
携帯厨なので助かります(`・ω・´)

まちBBSを見てきましたが、皆さん意外と楽観的で救われました。
市民の心がカオス状態になるのは、良くないですよね。
無理にでもプラス思考で乗り切りましょう。

48 :名無しSUN:2005/06/28(火) 03:32:02 ID:MLB5FCl5
>>47さん
>>44ですが、>>47さんも携帯だったのですね(´∀`)
お役に立てたなら嬉しいです(`・ω・´)

そうですね、あまり暗くなりすぎてもいけませんね。
ポジティブにいきましょう。皆でガンガロー

49 :名無しSUN:2005/06/28(火) 03:33:22 ID:PDJy2CbM
>>46さん
ありがとうございます
とにかく何事もないことを祈ってます

7.13水害を教訓にして、市役所や関係機関も
対策を練ってくれているはずだし、
危なくなったらすぐに教えてくれるはず!と思ってみる

50 :名無しSUN:2005/06/28(火) 03:47:26 ID:MASkVwd5
三条市の五十嵐川、河川水位が地盤高に届きそう。
内水氾濫に御注意を。
(堤防が溢れるのではなく、川に流れ込む排水路等が溢れる)

51 :名無しSUN:2005/06/28(火) 03:49:13 ID:5vyYBBQe
>>48さん
実は本日、日帰りで関東に行く為、リアルタイムでこちらの情報を得る事の出来るサイトを探しておりました。
気象はなる様にしかなりませんが、それでも人の気の持ち様は大事ですよね。

これから一週間、雨天が続くようですが、皆さんガンガリましょう(`・ω・´)

他市の皆さん、スレ汚しすみませんでした。

52 :名無しSUN:2005/06/28(火) 03:53:05 ID:8z2g3agw
雨雲が中越に南下。よりによって、やばいところに。

53 :名無しSUN:2005/06/28(火) 05:49:57 ID:CaexnURS
今は雨の降り、どう?

54 :名無しSUN:2005/06/28(火) 06:03:40 ID:5vyYBBQe
おはようございます。

雨が小降りになり一安心、と思いきや
(避難勧告かは分かりませんが)、避難の準備をしろとの事。

他の市はどんな状況なでしょうか。

55 :名無しSUN:2005/06/28(火) 06:25:23 ID:54QWp0mi
おはようです。
新潟市内です。とりあえず今は雨やんでます。
前線、どうせ南下するんなら一気に四国らへんまで
南下してやって欲しいんですが。

>>54サソのところは避難ですか……。何事もなく済むといいんですけど。どうかお気をつけて。

56 :名無しSUN:2005/06/28(火) 07:05:06 ID:5vyYBBQe
>>55さん
不覚にもワロてしまいましたw
他の県は水不足多発ですから、そちらに雨雲お裾分けしたいですよね!
下越はピークを過ぎたようですね。おめでとうございます(´∀`)

57 :名無しSUN:2005/06/28(火) 12:41:52 ID:a8vVjDCv
村松は再び降りだした。

58 :名無しSUN:2005/06/28(火) 14:19:03 ID:K/FldDwA
>57
実家が村松、今は新潟市民。
数年前の能代川氾濫の時は、村松にいました。
あの時のようにならないか心配です。

無災祈願age

59 :名無しSUN:2005/06/28(火) 15:06:13 ID:a8vVjDCv
>>58
正に能代川の沿線に住んでいるんだけど、今回は大丈夫っぽい。
昨年の713豪雨に比べると、水位がかなり低いです。

改修工事が順調なんでしょうね。

60 :名無しSUN:2005/06/28(火) 15:09:07 ID:KJIckqdF
私見附市民です。勤務地長岡だけど。
柏崎では膝まで水位が上がってるとか。
中之島も避難準備勧告が出たらしいですし、
何かもう、新潟最強ですね。


61 :名無しSUN:2005/06/28(火) 15:12:13 ID:ldU40KCl
>>60
中越は地震に見舞われさらに大雨だもんな・・・


62 :名無しSUN:2005/06/28(火) 15:39:41 ID:zcW151qV
柏崎で、田んぼの様子を見に行った老人が行方不明。
いつものことだが、どうしてわざわざ危険に身を晒しにいくのかねぇ・・・

63 :名無しSUN:2005/06/28(火) 15:43:47 ID:+DVzAfIr
>>62
ボケた老人がボケ防止の本を買ってきて、また翌日も買いにいっちゃうのと似てるなw

64 :名無しSUN:2005/06/28(火) 15:49:15 ID:9jppWJdV
一割でもいいので雨雲ください。まじで。

65 :名無しSUN:2005/06/28(火) 16:01:22 ID:rivt0mbn
ドカッと降ってザーッと海に流れ出ていくからなぁ・・・

66 :名無しSUN:2005/06/28(火) 16:10:38 ID:MLB5FCl5
おはようございます。各地で被害・避難勧告が出ていてとても心配です…
朝5時に避難準備情報がきたので学校休んでしまいました。。

>>49さん
そうですね。今回、避難準備情報も早かったし冷静に対処出来そうですね。
まだまだひどくなるかもしれないのでお互い気を付けましょう。。

>>51さん
ありゃ…関東に行かれる予定だったのですか、大変ですね。
忙しいかと思われますが、頑張って下さい!

避難勧告の出てる地域の方、頑張って下さい(つД`)

67 :名無しSUN:2005/06/28(火) 18:07:49 ID:tqurtI7T
自然災害続きで気の毒だな

68 :名無しSUN:2005/06/28(火) 19:58:15 ID:5BbFTug2
柏崎西本町はどうでしょうか
雨のせいではないと思いますが
携帯が通じなくて心配です


69 :名無しSUN:2005/06/29(水) 10:24:20 ID:Kfz569jQ
渇水状況から一転、豪雨でうるおいました
植物も元気になりました。

佐渡の水源も回復したようです
人柱となった栃尾の爺さま・・・

(-人-)・・・

70 :名無しSUN:2005/06/29(水) 21:40:20 ID:AZApsJsa
栃尾の爺さま いまだ行方不明

1009.5㍱

71 :名無しSUN:2005/06/30(木) 05:29:16 ID:DscKXTph
平成17年6月27日から28日の梅雨前線による大雨に関する新潟県気象速報が、
新潟地方気象台より発表されました。( PDF ファイル) 以下抜粋です。

1 概要
(1)資料作成の目的
新潟県では平成17年6月27日から梅雨前線が活発になった。
27日には下越を中心に,28日には上・中越を中心に大雨となった。
これにより行方不明1人の他、土砂災害や多くの浸水害が発生した。
このときの気象状況等を取りまとめる目的で本資料を作成した。

(2)気象状況
朝鮮半島付近にある低気圧から延びる前線が東北南部に達して,新
潟県では27日に梅雨入りした。27日夜には低気圧の接近と太平洋
高気圧の縁辺を周り込むように,日本海から前線に向かって暖かく湿
った空気が流れ込んだ。このため前線の活動が活発となって,日本海
で発生した発達した雨雲が次々と新潟県内に流れ込み,同じ地域に大
雨が持続した。27日朝から28日朝までの雨量は赤谷で291ミリ
など下越,佐渡を中心に大雨となった。
 27日6時の降り始めから29日9時までの雨量は川谷347ミリ,
赤谷313ミリ,大湯309ミリ,柏崎274ミリ,守門岳275ミ
リ,三面262ミリ,高根212ミリ,を記録した。

このため,柏崎地域を流れる鵜川が決壊するなどして,広い地域で
浸水害が発生した。

なお,この後1週間も北陸地方は梅雨前線の影響で,雨の降りやす
い状況が続く見込み。中越地震の被災地を含む県内は土砂災害や河川
の増水に警戒が必要である。



72 :名無しSUN:2005/06/30(木) 05:39:25 ID:DscKXTph
降水量分布図(抜粋)

http://gareki.dip.jp/Fb/1_2465.jpg

73 :名無しSUN:2005/06/30(木) 05:42:34 ID:DscKXTph
新潟地方気象台サマ
ttp://www.tokyo-jma.go.jp/home/niigata/

74 :名無しSUN:2005/06/30(木) 06:04:10 ID:DscKXTph
参考資料
2004年7月 豪雨の降水量分布図

http://gareki.dip.jp/Fb/1_2466.jpg
http://gareki.dip.jp/Fb/1_2467.jpg


75 :名無しSUN:2005/06/30(木) 06:53:12 ID:DscKXTph
参考資料

  2004年7月(平成16年7月新潟・福島豪雨)

 ┌────────────────────────────────┐
 │  日本海から新潟県・福島県附近に停滞していた梅雨前線は、12日夜   │
 │  から活発化して大雨となった。特に、13日朝から昼過ぎにかけて長岡.  │
 │  地域、三条地域を中心に非常に激しい雨が降った。その後夜に入っても │
 │  降り続き13日の日降水量は、栃尾で421ミリとなったほか三条、長岡.  │
 │  宮寄上、津川などで日降水量の多い記録の1位を更新した。        │
 │                                               │
 │   12日の降り始めから18日までの総降水量は.                │
 │                                               │
 │       守門岳 663ミリ                              │
 │       栃尾   563ミリ                             │
 │       長岡   340ミリ                             │
 │       宮寄上 490ミリ                             │
 │       津川   420ミリ 等を記録した。                   │
 └────────────────────────────────┘

76 :名無しSUN:2005/06/30(木) 07:25:20 ID:DscKXTph
大雨に関する新潟県気象情報 第23号
平成17年6月30日06時18分 新潟地方気象台発表

(見出し)
県内では、梅雨前線の北上に伴い、局地的に強い雨が降っています。
中越地震の被災地やこれまでの雨で地盤が緩んでいる所は、土砂災害に警戒して下さい。
また、浸水害、洪水害に注意してください。

(本文)
[要因]
 梅雨前線が新潟県にのびており、活動が活発となっています。

[雨の予想]
 これから7月1日朝までの24時間降水量は、多い所で
 下越で50ミリ、
 上中越で120ミリ
 佐渡で20ミリ  の見込みです。

 また、上越や中越を中心に30日昼過ぎにかけて、1時間30から40ミリの激しい雨の降る所があるでしょう。
 また、7月1日にかけても梅雨前線の活動は活発な見込みです。

[防災事項]
 県内では 山崩れ、がけ崩れ、河川の増水、低地の浸水、落雷、突風に注意してください。
 これまでの降雨で地盤が緩んでいる所があります。土砂災害の発生する可能性が
高まりますので注意してください。
 
[補足事項]
 今後、気象台の発表する警報、注意報、気象情報等に留意願います。

[次の情報発表予定]
 次の「大雨に関する新潟県気象情報」は、30日昼前に発表する予定です。

77 :名無しSUN:2005/06/30(木) 11:56:05 ID:Wh/M0G3O
大雨に関する新潟県気象情報 第24号

平成17年6月30日11時05分 新潟地方気象台発表

(見出し)
県内では7月1日には、再び激しい雨の降る恐れがあります。土砂災害、浸水害、洪水害に警戒が必要です。

(本文)
[要因]
 梅雨前線が北陸地方にのびています。現在活動は弱まっていますが、
7月1日には再び活発になる見込みです。

[防災事項]
 県内では30日は大雨の恐れはなくなりましたが7月1日昼過ぎから、強い雨の恐れがあり、
激しく降る所もある見込みです。
総雨量が増し、2日にかけ、大雨になる恐れがあります。山崩れ、がけ崩れ、河川の増水、低地の浸水に警戒が必要です。
 27日からの大雨で地盤が緩んでいる所があります。
土砂災害の発生する可能性が高まりますので警戒してください。



[次の情報発表予定]
 次の「大雨に関する新潟県気象情報」は、30日夕方に発表する予定です。



78 :名無しSUN:2005/06/30(木) 14:06:48 ID:Wh/M0G3O
平成17年 6月30日13時53分 新潟地方気象台発表

下越               雷注意報
長岡地域    大雨警報.  雷,洪水注意報
三条地域            大雨 ,雷,洪水注意報
柏崎地域    大雨警報.  雷,洪水注意報
魚沼北部地域 大雨警報.  雷,洪水注意報
魚沼南部地域 大雨警報.  雷,洪水注意報
十日町地域   大雨警報   雷,洪水注意報
上越東頸城地域..       大雨,雷注意報
糸魚川地域           雷注意報
妙高地域             雷注意報

中越では、30日夕方にかけて雷を伴った1時間に30ミリ程度の激しい雨が降る見込みです。
中越の地震被災地では、土砂災害に警戒して下さい。



79 :名無しSUN:2005/07/01(金) 15:22:28 ID:rPj7qQAv
北陸中心に激しい雨(1日夜から2日朝)
http://www.tenki.jp/tps/tps2005070110213.html

湿った空気が梅雨前線に流れ込み活動が活発になる。北陸を中心に近畿北部や山陰、東海、
甲信地方で時間30〜50ミリの激しい雨が降る。2日朝までに100ミリ以上、石川県と新潟県では
180ミリに達する大雨の所も。地盤が緩んでおり土砂災害に警戒!!

80 :名無しSUN:2005/07/02(土) 09:27:27 ID:br4CITFb
大雨に関する新潟県気象情報 第31号
平成17年7月2日05時13分 新潟地方気象台発表

新潟県では大雨の心配はなくなりました。


[要因]
 日本海から北陸地方にのびている梅雨前線の活動は弱まってきました。

[雨の予想]
 新潟県では、大雨の心配はなくなりましたが、2日朝の内まで雨の降る所があるでしょう。

[防災事項]
 上中越の地震被災地では、地盤が緩んでいますので、2日朝の内まで土砂災害に注意してください。


 
[情報発表予定]
 「大雨に関する新潟県気象情報」は、これで終了します。


81 :名無しSUN:2005/07/02(土) 11:26:00 ID:/muHH3Uu
今は九州北部〜瀬戸内が活発ですな
もう新潟北陸イジメはいいだろう

82 :名無しSUN:2005/07/04(月) 01:55:25 ID:/O5buKmK
大雨に関する新潟県気象情報 第32号
平成17年7月2日11時48分 新潟地方気象台発表

新潟県では大雨の心配はなくなりましたが、入梅後の大雨により地盤が緩んだ状態となっています。

[要因]
 日本海から北陸地方にのびていた梅雨前線は南下し県内への影響はなくなってきました。

[雨の予想]
 新潟県では、梅雨前線による大雨の心配はなくなりましたが、
明日3日まで大気の状態が不安定なため、雨の降る所もあるでしょう。

[これまでの雨量]
 梅雨入り後(6月27日)から今日(7月2日10時)までの、気象台、
測候所及びアメダス観測地点では以下の雨量(速報値)となっています。

 新潟 141ミリ 相川 163ミリ 高田 173ミリ

 朝日村三面   307ミリ      新発田市二王子岳 289ミリ 
 新発田市赤谷 340ミリ      阿賀町室谷      290ミリ
 長岡        168ミリ      栃尾市大町.     221ミリ 
 栃尾市守門岳 319ミリ      柏崎.          294ミリ 
 魚沼市入広瀬 275ミリ      上越市大潟      255ミリ 
 長岡市小国   280ミリ      魚沼市小出      320ミリ 
 魚沼市大湯   364ミリ      上越市川谷      387ミリ 
 十日町市松代 302ミリ      十日町         258ミリ


83 :名無しSUN:2005/07/04(月) 11:45:18 ID:7uAND3lL
大雨に関する新潟県気象情報 第1号
平成17年7月4日05時45分 新潟地方気象台発表

県内ではこれから5日明け方にかけて活動が活発な梅雨前線の影響により、
大雨となる見込みです。土砂災害、低地の浸水、河川の増水に注意が必要です。

[要因]
 北陸地方に停滞している梅雨前線は次第に北上し、活動が活発となる見込みです。

[雨の予想]
 県内ではこれから5日明け方にかけて1時間に20ミリ前後の強い雨の降る所がある見込みです。
また、5日明け方にかけて総雨量が多くなり、大雨となるおそれがあります。
 
 これから5日明け方までの24時間降水量は、それぞれ多い所で
  下越では  40ミリ
  中越では  40ミリ
  上越では 100ミリ
  佐渡では 100ミリ
 の見込みです。

[防災事項]
 山崩れ、がけ崩れ、河川の増水、低地の浸水に注意が必要です。
 特に、地震被災地では、梅雨入り後(6月27日)に多くの雨が降っていて、
地盤が緩んでいるため、少しの雨でも一層の注意が必要です。

84 :名無しSUN:2005/07/07(木) 02:52:05 ID:8BWzCmAk
新潟県記録的短時間大雨情報 第1号

平成17年7月6日20時30分 新潟地方気象台発表


 20時30分新潟県で記録的短時間大雨
  
 新発田市付近で約80ミリ


85 :名無しSUN:2005/07/07(木) 21:01:23 ID:o9TvW3MX
アメダスのデータなし
レーダー解析のみね

2005年07月06日 20時31分 新潟地方気象台発表
20時新潟県で記録的短時間大雨. 関川村付近で約80mm,
黒川村付近で約80mmを観測しました.

            時間雨量
関川村杁差 21:00 46mm
関川村杁差 20:00  9mm

関川村西俣 21:00  1mm
関川村西俣 20:00 10mm

86 :名無しSUN:2005/07/11(月) 21:12:12 ID:keE1VSpC
7月6日  20時30分〜21時51分

  20時30分
      新潟県記録的短時間大雨情報 第1号
      20時30分新潟県で記録的短時間大雨
      新発田市付近で約80ミリ

  20時31分
      岩船地域  :大雨、洪水警報発令
      新発田地域 :大雨、洪水警報発令

      20時新潟県で記録的短時間大雨.
         関川村付近で約80mm,黒川村付近で約80mmを観測しました

  21時51分
      岩船地域  :大雨、洪水警報解除
      新発田地域 :大雨、洪水警報解除
      

7月6日  20時00分のレーダー画像
ttp://venus.aez.jp/uploda/data/dat6/upload317169.gif
ttp://venus.aez.jp/uploda/data/dat5/upload317171.png

7月6日  20時30分のレーダー画像
ttp://venus.aez.jp/uploda/data/dat4/upload317170.gif
ttp://venus.aez.jp/uploda/data/dat2/upload317172.png

87 :名無しSUN:2005/07/11(月) 21:23:00 ID:keE1VSpC
7月6日  20時00分のレーダー画像
http://gareki.dip.jp/Fb/1_2563.gif
http://gareki.dip.jp/Fb/1_2564.png

7月6日  20時30分のレーダー画像
http://gareki.dip.jp/Fb/1_2565.gif
http://gareki.dip.jp/Fb/1_2566.png

88 :名無しSUN:2005/07/11(月) 21:52:30 ID:keE1VSpC
大雨に関する新潟県気象情報 第2号

平成17年7月11日16時45分 新潟地方気象台発表

県内では、下越を中心に12日明け方から昼前にかけて強い雨が降り、大雨となる見込みです。
土砂災害、低地の浸水、河川の増水に注意して下さい。

[要因]
 前線上の低気圧が日本海を東に進み、前線の活動が活発となる見込みです。

[雨の予想]
 下越を中心に12日明け方から昼前にかけて、1時間に20から30ミリの強い雨の降る所がある見込みです。
 これから12日夕方までの24時間降水量は、多い所で
 下越 150ミリ
 中越  90ミリ
 上越  80ミリ
 佐渡  90ミリ 
の見込みで、警報級の大雨となる所があるでしょう。

[防災事項]
 山崩れ、がけ崩れ、河川の増水、低地の浸水、落雷、突風に注意が必要です。
 
[補足事項]
 今後、気象台の発表する警報、注意報、気象情報等に留意して下さい。

[情報発表予定]
 次の「大雨に関する新潟県気象情報」は12日明け方に発表する予定です


89 :名無しSUN:2005/07/12(火) 16:40:57 ID:TvyfUTOQ
大雨に関する新潟県気象情報 第5号
平成17年7月12日11時40分 新潟地方気象台発表

新潟県では、大雨の恐れはなくなりましたが、上中越地方では、11日から
の雨が60ミリを超えて地盤の緩んでいる所があります。12日夕方までは土砂災害に十分注意してください。

[要因]
梅雨前線は弱まりながら北陸地方をゆっくりと南下しています。

[防災事項]
11日からの雨で上中越では地盤の緩んでいるところがあります。
12日夕方までは土砂災害に注意してください。
また、糸魚川地域では12日夕方まで河川の増水にも注意してください。

[雨の実況]
12日11時までの24時間降水量は、アメダス観測所(速報値)の多い所で、
上越市大潟   74ミリ   糸魚川       76ミリ
上越市高田   68ミリ   上越市安塚   67ミリ
上越市川谷   73ミリ   十日町市松代 64ミリ
糸魚川市能生 79ミリ   糸魚川市平岩 74ミリ
柏崎       60ミリ
となっています。

「大雨に関する新潟県気象情報」はこれで終了します。

90 :名無しSUN:2005/07/20(水) 22:35:06 ID:Q4yz7PGf

         ☆ チン   
                  
       ☆ チン  〃  ∧_∧   / ̄ ̄ ̄ ̄ ̄ ̄ ̄ ̄ ̄
        ヽ ___\(\・∀・) < 梅雨明けまだ〜?
            \_/⊂ ⊂_ )   \_________
          / ̄ ̄ ̄ ̄ ̄ ̄ /|
       | ̄ ̄ ̄ ̄ ̄ ̄ ̄|  |
       |  白根の梨.  |/

91 :名無しSUN:2005/07/23(土) 01:18:18 ID:5Ro4oFLH
平成17年7月22日04時30分気象庁予報部発表

台風第7号が発生しました。

22日3時、フィリピンの東の
北緯15度00分、東経137度10分において、
熱帯低気圧が台風第7号になりました。
台風は1時間におよそ10キロの速さで北へ進んでいます。
中心の気圧は992ヘクトパスカル
中心付近の最大風速は18メートルで
中心から半径220キロ以内では
風速15メートル以上の強い風が吹いています。


92 :名無しSUN:2005/07/23(土) 18:19:24 ID:ur8DQ+Lj
梅雨明け キタ━━━━━(゚∀゚)━━━━━!!!!

93 :名無しSUN:2005/07/25(月) 11:46:53 ID:f/KJOeFA
1008㍱

94 :名無しSUN:2005/07/27(水) 00:39:58 ID:0ToTN81g
         ☆ チン   
                  
       ☆ チン  〃  ∧_∧   / ̄ ̄ ̄ ̄ ̄ ̄ ̄ ̄ ̄
        ヽ ___\(\・∀・) < 吹き返しの風まだ〜?
            \_/⊂ ⊂_ )   \_________
          / ̄ ̄ ̄ ̄ ̄ ̄ /|
       | ̄ ̄ ̄ ̄ ̄ ̄ ̄|  |
       |  白根の梨.  |/

95 :名無しSUN:2005/07/27(水) 15:43:56 ID:EAm4rW8h
何で今大雨警報が出てるんだ?レーダーでは何も映ってないぞ。


96 :名無しSUN:2005/07/27(水) 16:43:51 ID:41feTNva
心の汚いヒトには 見えないのであった

97 :名無しSUN:2005/07/28(木) 01:44:55 ID:oOnXaApM
謎のエコー?

ttp://aploda.org/dat5/upload44428.gif

98 :名無しSUN:2005/07/29(金) 17:09:01 ID:GKSR4fiZ
         ☆ チン   
                  
       ☆ チン  〃  ∧_∧   / ̄ ̄ ̄ ̄ ̄ ̄ ̄ ̄ ̄
        ヽ ___\(\・∀・) < 蒸し暑いな 雨まだ〜?
            \_/⊂ ⊂_ )   \_________
          / ̄ ̄ ̄ ̄ ̄ ̄ /|
       | ̄ ̄ ̄ ̄ ̄ ̄ ̄|  |
       |  白根の梨.  |/

99 :名無しSUN:2005/07/29(金) 22:47:34 ID:ztRs1kCr
RJSN 291000Z 291018 17008KT 9000 FEW015 SCT030 BKN050
BECMG 1214 23012KT
TEMPO 1215 4000 SHRA

100 :名無しSUN:2005/07/30(土) 01:37:35 ID:1tyaSOFv
RJSN 290900Z 291812 22008KT 9999 FEW020 BKN040
BECMG 0103 33010KT

101 :名無しSUN:2005/07/30(土) 18:01:23 ID:8N/q8tKm
RJSN 300600Z 300615 01008KT 9999 FEW015 SCT030
TEMPO 1014 SHRA

102 :名無しSUN:2005/07/30(土) 22:06:35 ID:0ARmiX7Z
RJSN 300900Z 300918 30005KT 9999 FEW015 SCT030 BKN080
TEMPO 0915 SHRA
    

103 :名無しSUN:2005/07/31(日) 08:18:12 ID:vZixutII
RJSN 302100Z 302106 17005KT 9000 FEW030 SCT080
BECMG 0002 34008KT

1004㍱

104 :名無しSUN:2005/07/31(日) 13:19:38 ID:Dd7wlOgk
RJSN 310300Z 310312 01010KT 9000 FEW030

1005㍱

雷雨とかは 来ないのか・・・・・

105 :名無しSUN:2005/07/31(日) 16:17:17 ID:t6hwXv55
RJSN 310600Z 310615 02008KT 7000 FEW025 SCT035 BKN080
TEMPO 0912 4000 -SHRA BR

雷は大丈夫そうで なにより

106 :名無しSUN:2005/07/31(日) 21:04:34 ID:0dTRntri
RJSN 310900Z 310918 03007KT 7000 FEW025 SCT040 BKN080
TEMPO 0912 4000 -SHRA BR
TEMPO 1518 3500 -SHRA BR

107 :名無しSUN:2005/08/01(月) 07:45:55 ID:jfdDoxBj
RJSN 312100Z 312106 17004KT 7000 FEW005 SCT010
TEMPO 2124 3000 BR BECMG 0002 35009KT

108 :名無しSUN:2005/08/01(月) 14:11:17 ID:BNirPeK1
台風9号、日本海通過絶対反対!

109 :名無しSUN:2005/08/02(火) 03:41:58 ID:bt6kV5Ex
RJSN 010900Z 010918 07005KT 7000 FEW020 SCT030
TEMPO 1013 4000 -SHRA BR

110 :名無しSUN:2005/08/02(火) 13:51:12 ID:AVrXsRSr
RJSN 020400Z 33007KT 9999 FEW030 BKN/// 32/25 Q1006
RJSN 020300Z 34006KT 9999 FEW040 BKN/// 32/24 Q1007
RJSN 020238Z 35006KT 9999 FEW040 BKN/// 32/24 Q1007 RMK 1CU040 A2975
RJSN 020200Z 35006KT 300V030 9999 FEW040 BKN/// 30/25 Q1007
RJSN 020100Z 35006KT 9999 FEW040 BKN/// 31/24 Q1007
RJSN 020000Z 15008KT 9999 FEW030 BKN/// 32/23 Q1007

RJSN 020300Z 020312 02008KT 9999 FEW030 SCT080

RJSN 020300Z 021206 14005KT 8000 FEW030 SCT080
BECMG 2301 35008KT


111 :名無しSUN:2005/08/02(火) 15:39:14 ID:AVrXsRSr
順位 府県名 地点名  気温(℃)
1 山形県  米沢    36.0℃
2 兵庫県  豊岡    35.9℃
3 京都府  舞鶴 .  35.8℃  
4 京都府  宮津  . 35.5℃  
5 新潟県  小出 .  35.1℃  
5 大阪府  堺     35.1℃  
7 新潟県  新津  . 35.0℃  
8 岐阜県  多治見  34.8℃  
9 兵庫県  和田山  34.7℃  
10 新潟県  羽茂   34.6℃  
10 福井県  福井   34.6℃  
12 福井県  小浜   34.5℃  
12 滋賀県  彦根   34.5℃  
14 新潟県  津川   34.4℃  
15 愛知県  豊田   34.3℃  
15 福井県  敦賀   34.3℃  
15 福井県  越廼   34.3℃  
18 山梨県  勝沼   34.2℃  
19 富山県  泊  .  34.1℃  
19 新潟県  中条   34.1℃  
21 福島県  福島   34.0℃  
21 岐阜県  美濃   34.0℃  
21 愛媛県  大洲   34.0℃  
24 山梨県  甲府   33.9℃  
24 京都府  福知山  33.9℃  
26 長野県  南信濃  33.8℃  
26 愛知県  愛西   33.8℃  
26 青森県  三戸   33.8℃  
29 福井県  美浜   33.7℃  
29 兵庫県  柏原   33.7℃  

112 :名無しSUN:2005/08/02(火) 23:03:02 ID:RKR3JcyX
台風9号が 日本海へ新潟に上陸後太平洋側へ横断する可能性も・・・
最悪のコース? 風炎で大変な気温になりそうだけど

ttp://wxmaps.org/pix/ea2.144hr.png

113 :名無しSUN:2005/08/03(水) 00:10:47 ID:nPz4eZWy
アメダス気温TOP10(23時)
  High Low
順位 観測地点名 気温(℃) 観測地点名 気温(℃)

1 福井県越廼 30.2   北海道納沙布 16.4
2 島根県益田 29.4   北海道榊町 17.0
3 大阪府大阪 29.2   北海道大津 17.0
4 鹿児島県名瀬 29.2  北海道知方学 17.5
5 新潟県長岡 29.1   北海道太田 17.6
6 鹿児島県古仁屋 29.1 北海道浜鬼志別 17.8
7 沖縄県金武 29.1   北海道厚床 17.8
8 沖縄県那覇 29.1   北海道根室 18.0
9 沖縄県石垣島 29.1 北海道釧路 18.1
10 福井県敦賀 29.0  北海道糠内 18.2


114 :名無しSUN:2005/08/03(水) 05:46:27 ID:oacxS23O
こらこら 12時間後には朝鮮半島上陸の予報に修正かよ

115 :名無しSUN:2005/08/03(水) 13:12:17 ID:itVCHAxG
RJSN 030300Z 030312 28010KT 9999 FEW040
BECMG 1012 21005KT

12時現在
島根県   益田 35.3℃
鳥取県   米子 35.2℃
和歌山県 かつらぎ 35.0℃
鳥取県   青谷 35.0℃
富山県   氷見 34.9℃
富山県   伏木 34.7℃
鳥取県   境 34.7℃
大分県   日田 34.6℃
熊本県   水俣 34.6℃
兵庫県   豊岡 34.5℃
徳島県   穴吹 34.4℃
大分県   大分 34.4℃
愛知県   名古屋 34.3℃
新潟県   新潟 34.3℃
岐阜県   多治見 34.2℃
石川県   珠洲 34.2℃
島根県   津和野 34.2℃
新潟県   新津 34.1℃
三重県   尾鷲 34.0℃
富山県   八尾 34.0℃
福井県   小浜 34.0℃
島根県   大田 34.0℃


116 :名無しSUN:2005/08/03(水) 13:22:14 ID:itVCHAxG
アメダス気温TOP10(13時)
  High Low
順位 観測地点名 気温(℃) 観測地点名 気温(℃)

1 島根県益田 36.6   北海道大津 17.0
2 岐阜県多治見 36.0  北海道知方学 17.4
3 兵庫県豊岡 35.9   北海道納沙布 17.7
4 富山県伏木 35.7   北海道根室 17.9
5 鳥取県米子 35.5   北海道榊町 18.5
6 石川県珠洲 35.4   北海道白糠 18.7
7 群馬県館林 35.3   北海道釧路 18.9
8 新潟県新津 35.3   北海道厚床 19.0
9 新潟県小出 35.2   北海道苫小牧 19.1
10 鳥取県青谷 35.2  北海道白老 19.1


117 :名無しSUN:2005/08/04(木) 13:12:36 ID:fprYJN07
10時

順位 府県名 地点名 気温
(℃)
1 新潟県 村上 33.7
2 新潟県 中条 33.3
3 島根県 益田 33.3
4 石川県 七尾 33.2
5 石川県 金沢 33.2
6 福井県 小浜 33.2
7 福岡県 福岡 33.2
8 大阪府 堺 33.1
9 熊本県 熊本 33.1
10 京都府 福知山 33.0
11 兵庫県 豊岡 33.0
12 島根県 出雲 33.0
13 富山県 富山 32.8
14 鳥取県 境 32.8
15 鳥取県 米子 32.8
16 山形県 酒田 32.7
17 岐阜県 多治見 32.7
18 福岡県 太宰府 32.7
19 新潟県 羽茂 32.6
20 新潟県 高田 32.5


118 :名無しSUN:2005/08/04(木) 13:13:45 ID:fprYJN07
11時

気温(高温)ランキング
順位 府県名 地点名 気温(℃)
1 島根県 益田 35.1
2 和歌山県 かつらぎ 34.6
3 新潟県 中条 34.5
4 秋田県 矢島 34.4
5 福井県 小浜 34.1
6 福岡県 福岡 34.1
7 茨城県 大子 34.0
8 熊本県 熊本 34.0
9 宮城県 志津川 33.9
10 島根県 大田 33.9
11 福井県 福井 33.8
12 鳥取県 米子 33.8
13 宮城県 気仙沼 33.7
14 群馬県 上里見 33.6
15 石川県 七尾 33.6
16 兵庫県 豊岡 33.6
17 福岡県 太宰府 33.6
18 大分県 中津 33.6
19 大分県 日田 33.6
20 岩手県 岩泉 33.5


119 :名無しSUN:2005/08/04(木) 13:14:53 ID:fprYJN07
12時

順位 府県名 地点名 気温(℃)

1 島根県 益田 35.7
2 新潟県 新津 35.3
3 新潟県 中条 35.1
4 埼玉県 熊谷 34.9
5 福井県 小浜 34.9
6 兵庫県 豊岡 34.9
7 東京都 練馬 34.8
8 岩手県 釜石 34.7
9 山形県 米沢 34.7
10 福島県 福島 34.7
11 和歌山県 かつらぎ 34.7
12 大分県 日田 34.7
13 長野県 南信濃 34.6
14 岐阜県 多治見 34.6
15 福井県 敦賀 34.6
16 宮城県 志津川 34.5
17 新潟県 津川 34.5
18 福井県 福井 34.5
19 広島県 加計 34.5
20 島根県 大田 34.4

120 :名無しSUN:2005/08/04(木) 13:16:31 ID:fprYJN07
13時

順位 府県名 地点名 気温(℃)

1 東京都 練馬 35.9
2 兵庫県 豊岡 35.9
3 大分県 中津 35.7
4 岐阜県 多治見 35.5
5 京都府 舞鶴 35.4
6 和歌山県 かつらぎ 35.4
7 群馬県 館林 35.3
8 岐阜県 大垣 35.2
9 埼玉県 熊谷 35.1
10 山梨県 甲府 35.1
11 新潟県 新津 35.1
12 新潟県 小出 35.1
13 岩手県 釜石 35.0
14 山形県 米沢 35.0
15 東京都 府中 35.0
16 愛知県 愛西 34.9
17 京都府 宮津 34.9
18 大阪府 豊中 34.9
19 群馬県 前橋 34.8
20 群馬県 伊勢崎 34.8

121 :名無しSUN:2005/08/04(木) 13:58:28 ID:uBRd54ti
ID:fprYJN07 の人は
どこでそのリストをゲットしてるですか?

122 :名無しSUN:2005/08/05(金) 01:53:17 ID:8daydy8Z
RJSN 041100Z 01005KT 9000 NSC 28/25 Q1011
RJSN 041000Z 02006KT 9000 FEW020 SCT/// 29/24 Q1011
RJSN 040900Z 01008KT 9999 FEW020 SCT/// 29/25 Q1011
RJSN 040800Z 03007KT 9999 FEW020 SCT/// 30/25 Q1010

123 :名無しSUN:2005/08/05(金) 01:55:09 ID:8daydy8Z
RJSN 040900Z 040918 02008KT 9000 FEW020

124 :名無しSUN:2005/08/05(金) 10:51:09 ID:FjtFIHLN
8時

順位 府県名 地点名 気温
(℃)
1 宮城県 気仙沼 30.8
2 岩手県 久慈 30.7
3 大阪府 豊中 30.7
4 宮城県 志津川 30.4
5 青森県 十和田 30.3
6 群馬県 上里見 30.2
7 東京都 練馬 30.1
8 石川県 金沢 30.1
9 島根県 西郷 30.1
10 青森県 弘前 30.0
11 青森県 八戸 30.0
12 東京都 東京 30.0
13 三重県 桑名 30.0
14 新潟県 新潟 29.9    ←キテマス
15 石川県 富来 29.9
16 石川県 かほく 29.9
17 鹿児島県 指宿 29.9
18 青森県 青森 29.8
19 岩手県 大船渡 29.8
20 東京都 府中 29.8

125 :名無しSUN:2005/08/05(金) 10:53:27 ID:FjtFIHLN
9時

順位 府県名 地点名 気温
(℃)
1 宮城県 気仙沼 32.4
2 山形県 鶴岡 32.3
3 東京都 練馬 32.1
4 新潟県 新潟 32.1   ←おぉ
5 岩手県 久慈 32.0
6 新潟県 新津 32.0   ←常連
7 宮城県 志津川 31.8
8 山形県 酒田 31.7
9 大阪府 豊中 31.7
10 石川県 金沢 31.6
11 岩手県 住田 31.5
12 東京都 青梅 31.5
13 新潟県 村上 31.4   ←珍しい
14 岩手県 小本 31.3
15 福島県 小野新町 31.3
16 栃木県 烏山 31.2
17 群馬県 上里見 31.2
18 東京都 東京 31.2
19 千葉県 茂原 31.2
20 大阪府 堺 31.2

126 :名無しSUN:2005/08/05(金) 10:58:09 ID:FjtFIHLN
順位 府県名 地点名 気温(℃)  10時現在
1 鳥取県 智頭 34.0℃  
2 大阪府 豊中 33.4℃
3 群馬県 上里見 33.3℃
3 熊本県 熊本 33.3℃
5 岩手県 岩泉 33.2℃
6 東京都 府中 33.1℃
6 島根県 益田 33.1℃
6 東京都 練馬 33.1℃
9 大阪府 大阪 33.0℃
9 神奈川県 海老名 33.0℃
9 岩手県 住田 33.0℃
9 奈良県 上北山 33.0℃
9 栃木県 塩谷 33.0℃
14 大阪府 堺 32.9℃
14 高知県 中村 32.9℃
14 茨城県 大子 32.9℃
17 新潟県 下関 32.8℃  ←ほぉ 下越 強い
17 新潟県 新津 32.8℃  ←常連
19 静岡県 天竜 32.7℃
19 岐阜県 多治見 32.7℃
19 新潟県 中条 32.7℃  ←常連 小出、長岡は?
19 東京都 東京 32.7℃
23 大阪府 枚方 32.6℃
23 熊本県 鹿北 32.6℃
23 和歌山県 かつらぎ 32.6℃
23 京都府 京都 32.6℃
27 埼玉県 寄居 32.5℃
27 千葉県 茂原 32.5℃
27 島根県 大田 32.5℃
27 福岡県 福岡 32.5℃


127 :名無しSUN:2005/08/05(金) 11:31:27 ID:FjtFIHLN
順位 府県名 地点名 気温(℃)  11時
1 大阪府 堺 35.8℃
2 東京都 練馬 35.1℃
2 茨城県 大子 35.1℃
4 岐阜県 多治見 34.9℃
4 岩手県 岩泉 34.9℃
4 群馬県 館林 34.9℃
7 大阪府 豊中 34.6℃
7 新潟県 新津 34.6℃  ←唯一きてます
7 神奈川県 海老名 34.6℃
10 京都府 京都 34.5℃
10 和歌山県 かつらぎ 34.5℃
12 熊本県 熊本 34.4℃
13 埼玉県 寄居 34.3℃
13 東京都 東京 34.3℃
15 大阪府 大阪 34.2℃
16 東京都 府中 34.1℃
17 愛知県 東海 34.0℃
17 和歌山県 栗栖川 34.0℃
19 群馬県 伊勢崎 33.9℃
19 愛知県 名古屋 33.9℃
19 山梨県 南部 33.9℃
19 埼玉県 越谷 33.9℃
23 群馬県 上里見 33.8℃
23 埼玉県 熊谷 33.8℃
23 高知県 中村 33.8℃
23 静岡県 天竜 33.8℃
23 岐阜県 揖斐川 33.8℃
28 奈良県 五條 33.7℃
28 石川県 富来 33.7℃
28 秋田県 矢島 33.7℃


128 :名無しSUN:2005/08/05(金) 14:46:29 ID:XGvmQYB8
14時

1 大阪府豊中37.8℃
2 大阪府堺37.3℃
3 群馬県館林37.2℃
4 岐阜県揖斐川36.8℃
4 岐阜県多治見36.8℃
6 兵庫県西脇36.7℃
7 群馬県伊勢崎36.6℃
8 埼玉県寄居36.3℃
8 埼玉県熊谷36.3℃
10 京都府園部36.2℃
10 大阪府枚方36.2℃
10 大阪府大阪36.2℃
41 新潟県小出35.2℃ ←大本命
84 新潟県新津34.6℃ ←常連さん


129 :名無しSUN:2005/08/05(金) 21:23:45 ID:bGachtyG
RJSN 050900Z 050918 04008KT 9000 FEW030

RJSN 050900Z 051812 14005KT 9000 FEW030
BECMG 0002 35010KT

RJSN 051100Z 03008KT 9000 NSC 28/25 Q1010

130 :名無しSUN:2005/08/06(土) 21:45:44 ID:RQ1ugyyl
RJSN 061022Z 061018 03009KT 9000 FEW015 BKN030
TEMPO 1015 -TSRA FEW015 FEW015CB BKN030
BECMG 1618 20006KT

131 :名無しSUN:2005/08/07(日) 11:17:03 ID:Cz0Obtxa
昨日の雷雨も中越で弱まり 新潟市迄届かなかった

RJSN 070100Z 29005KT 7000 -SHRA FEW010 SCT020 BKN030 27/25 Q1011

RJSN 062100Z 070624 02010KT 9999 FEW015 BKN040
BECMG 1214 14006KT

RJSN 070000Z 070009 34010KT 9999 FEW015 SCT040
BECMG 0810 02008KT

132 :名無しSUN:2005/08/07(日) 11:30:17 ID:Cz0Obtxa
ttp://venus.aez.jp/uploda/data/dat4/upload317796.gif


大雨と雷に関する新潟県気象情報 第1号

平成17年8月7日05時30分 新潟地方気象台発表

上中下越では、7日昼過ぎから宵の内にかけて局地的に激しい雨の降る恐れがあります。
土砂災害、河川の急激な増水、低地の浸水などに警戒して下さい。

[要因]
北陸地方は暖かく湿った空気に覆われている状態となっており、
7日は本州の上空に寒気が流れ込んでくるため、大気の状態が不安定になる見込みです。

[雨の予想]
7日昼過ぎから宵の内にかけて局地的に1時間に30ミリから40ミリ
の激しい雨の降る所があるでしょう。

[防災事項]
土砂災害、河川の急激な増水、低地の浸水に警戒して下さい。
また、発達した積乱雲の近くでは落雷や突風に注意して下さい。
特に、中越地震の被災地域では、6日の大雨で地盤の緩んでいる所がありますので、
土砂災害に警戒して下さい。



133 :名無しSUN:2005/08/08(月) 00:04:40 ID:uiqjOM1S
大雨と雷に関する新潟県気象情報 第3号

平成17年8月7日18時27分 新潟地方気象台発表

7日日中は、県内では局地的に雷を伴って非常に激しい雨が降りましたが、
7日夜には広範囲に大雨の降るおそれは少なくなりました。しかし、8日も
新たな寒気が入り、大気の不安定な状態は続く見込みです。

[要因]
県内は暖かく湿った空気に覆われている状態となっており、7日は本州の上
空に寒気が流れ込み、大気の状態が不安定となっています。

[雨の予想]
県内では、8日にかけて、雷を伴って1時間に20〜30ミリの雨の降る所がある見込みです。

[雨の実況]
7日日中の1時間あたりの降水量の多かった所(アメダス)は、
糸魚川市平岩 26ミリ(15時)、
湯沢     19ミリ(16時)、
塩沢     16ミリ(16時)、
新発田市赤谷 14ミリ(16時)、
などとなっています。

[防災事項]
土砂災害、河川の増水、低地の浸水に注意して下さい。
また、発達した積乱雲の近くでは落雷や突風に注意してください。
特に中越地震の被災地域では、地盤が緩んでいる所がありますので、土砂災害に注意して下さい。

[情報の発表予定]
「大雨と雷に関する新潟県気象情報」は、これで終了します。=

134 :名無しSUN:2005/08/08(月) 00:19:32 ID:uiqjOM1S

RJSN 070900Z 070918 02006KT 9000 FEW015 SCT030

RJSN 070900Z 071812 17006KT 9000 FEW015 BKN030
BECMG 0103 28010KT

135 :名無しSUN:2005/08/08(月) 10:03:12 ID:psMwkc/7
RJSN 080000Z 080009 21008KT 9000 FEW015 SCT030
TEMPO 0206 4000 -TSRA FEW010 FEW015CB SCT020 BKN030
BECMG 0406 30010KT

136 :名無しSUN:2005/08/08(月) 16:04:07 ID:wp37gIWR
RJSN 080600Z 080615 29010KT 9999 FEW020 SCT025
TEMPO 0610 FEW015 FEW015CB SCT025
BECMG 1012 14005KT

137 :名無しSUN:2005/08/08(月) 21:47:44 ID:jsnM0CXQ
RJSN 080900Z 080918 32010KT 8000 FEW020 SCT025
TEMPO 0910 2000 +SHRA FEW015 SCT020CB BKN030
BECMG 1012 02007KT
TEMPO 1015 FEW015 FEW020CB SCT025

17時54分に新潟地域に発令されて大雨洪水警報は
20時29分に大雨洪水注意報に切り替えされた

138 :名無しSUN:2005/08/09(火) 09:57:29 ID:6E4US1Es
新潟県記録的短時間大雨情報 第1号

平成17年8月8日17時45分 新潟地方気象台発表

 17時30分新潟県で記録的短時間大雨
 新発田山沿い付近で約80ミリ
 阿賀野市付近で約90ミリ

RJSN 090000Z 090009 17005KT 9999 FEW035
BECMG 0103 31010KT

139 :名無しSUN:2005/08/09(火) 11:45:00 ID:6E4US1Es
47604 12/60 71703 10281 20226 30121 40129 51006 60002 81232
333 20242 70055

140 :名無しSUN:2005/08/09(火) 23:51:14 ID:y6CE3jbn
RJSN 090900Z 090918 04005KT 9999 FEW025 SCT080


RJSN 090900Z 091812 15008KT 7000 -SHRA FEW008 SCT015 BKN030
TEMPO 1824 4000 SHRA BR
BECMG 0002 22012KT
TEMPO 0006 3000 SHRA BR FEW005 FEW015CB BKN025
TEMPO 0612 SHRA

141 :名無しSUN:2005/08/10(水) 07:21:57 ID:PG+tgG0H
台風9号の置き土産か・・・


大雨と雷に関する新潟県気象情報 第1号
平成17年8月10日06時05分 新潟地方気象台発表

下越では10日夕方にかけて、局地的に雷を伴って激しい雨の降る恐れがあります。
土砂災害、河川の急激な増水、低地の浸水に警戒が必要です。

[要因]
日本海から東北地方にのびる前線の活動が活発となっています。台風第9号
から運んできた暖かく湿った空気が前線に向かって吹き込み、前線近傍では
大気の状態が非常に不安定となっています。

[雨の予想]
10日夕方にかけて、下越を中心に1時間に30から40ミリの激しい雨の降る所があるでしょう。
11日朝までの24時間雨量は多い所で
下越 150ミリ
中越  90ミリ
上越  50ミリ
佐渡  50ミリの見込みです。
 
[防災事項]
土砂災害、低地の浸水、河川の急激な増水に警戒が必要です。また、落雷、突風に注意してください。

[特記事項]
気象台が発表する注意報、警報、気象情報に留意してください。



142 :名無しSUN:2005/08/10(水) 09:51:11 ID:PG+tgG0H
8月10日 9時
順位 府県名 地点名 降水量(mm/h)
1 新潟県 相川 32.5mm
2 福島県 広野 24.5mm
3 福島県 平 24.0mm
4 福島県 石川 23.0mm
4 岐阜県 白川 23.0mm
6 福島県 大辷山 21.0mm
6 福島県 金山 21.0mm
8 福島県 湯本 19.5mm
9 福島県 富岡 18.5mm
10 長野県 大町 18.0mm
11 福島県 川前 17.5mm
11 新潟県 寺泊 17.5mm
13 石川県 白山吉野 17.0mm
14 福島県 南郷 15.0mm
15 福島県 白河 14.5mm
15 新潟県 羽茂 14.5mm
17 福島県 若松 13.0mm
18 新潟県 入広瀬 12.5mm
18 長野県 笠岳 12.5mm
18 福島県 小野新町 12.5mm
18 福島県 山王峠 12.5mm
22 新潟県 守門岳 12.0mm
22 新潟県 三条 12.0mm
22 福島県 博士峠 12.0mm
25 福島県 長沼 11.5mm
26 福島県 田島 10.5mm
27 福島県 上遠野 10.0mm
27 新潟県 下関 10.0mm
27 福島県 川内 10.0mm
27 長野県 小谷 10.0mm

143 :名無しSUN:2005/08/10(水) 10:03:09 ID:PG+tgG0H
08月10日03時
順位 府県名 地点名 降水量(mm)

1 新潟県 新潟 30
2 長野県 上高地 13
3 宮城県 塩釜 12.5
4 岩手県 江刺 11.5
5 新潟県 粟島 8.5


144 :名無しSUN:2005/08/10(水) 11:15:14 ID:PaUZgIQP
新潟市西地区ものすごい雨。
大堀幹線が心配だ。
がんがれ小新ポンプ場!


145 :名無しSUN:2005/08/10(水) 11:31:48 ID:RJjw6Z1X
2005年8月10日 11時現在
順位 府県名 地点名 降水量(mm/h)
1 新潟県 巻 25.5mm
2 新潟県 宮寄上 18.0mm
3 茨城県 大能 16.0mm
4 茨城県 水戸 15.0mm
5 茨城県 日立 13.5mm
5 茨城県 龍ケ崎 13.5mm
7 茨城県 江戸崎 10.0mm
8 三重県 雲母峰 9.0mm
9 福島県 只見 8.5mm
10 茨城県 中野 7.5mm
11 新潟県 下関 7.0mm
12 島根県 匹見 6.5mm
12 新潟県 寺泊 6.5mm
14 愛知県 蟹江 6.0mm
14 新潟県 守門岳 6.0mm
14 新潟県 三条 6.0mm
17 島根県 瑞穂 5.5mm
17 新潟県 弾崎 5.5mm
17 千葉県 船橋 5.5mm
17 茨城県 北茨城 5.5mm
21 新潟県 村松 5.0mm
21 長野県 高遠 5.0mm
21 新潟県 両津 5.0mm
21 富山県 南砺高宮 5.0mm
21 福島県 稲荷峠 5.0mm
21 茨城県 徳田 5.0mm
21 茨城県 土浦 5.0mm
21 長野県 辰野 5.0mm
21 新潟県 室谷 5.0mm
30 千葉県 我孫子 4.5mm

146 :名無しSUN:2005/08/10(水) 11:39:15 ID:RJjw6Z1X
平成17年 8月10日09時56分 新潟地方気象台発表
佐渡:大雨,洪水警報:雷注意報
下越:          大雨,雷,洪水注意報
長岡地域:大雨警報:雷,洪水注意報
三条地域:      大雨,雷,洪水注意報
魚沼北部地域:大雨警報:雷,洪水注意報
柏崎地域:大雨警報:雷,洪水注意報
魚沼南部地域:   大雨,雷注意報
十日町地域:     大雨,雷注意報
上越東頸城地域:  大雨,雷注意報
糸魚川地域:     大雨,雷,洪水注意報
妙高地域:      雷注意報

新潟県記録的短時間大雨情報 第1号
平成17年8月10日09時58分 新潟地方気象台発表

 9時30分新潟県で記録的短時間大雨
 佐渡国中南部付近で約80ミリ
 佐渡市真野付近で約70ミリ

新潟県記録的短時間大雨情報 第2号
平成17年8月10日10時15分 新潟地方気象台発表

 10時新潟県で記録的短時間大雨
 佐渡市赤泊付近で約80ミリ

147 :名無しSUN:2005/08/10(水) 11:45:07 ID:BLnsFxM+
RJSN 100000Z 100009 14008KT 7000 -SHRA FEW008 SCT010 BKN025
BECMG 0002 23012KT
TEMPO 0003 3000 TSRA FEW008 SCT010 FEW015CB BKN020
TEMPO 0306 4000 SHRA

148 :名無しSUN:2005/08/10(水) 12:11:58 ID:PaUZgIQP
平成17年 8月10日11時52分 新潟地方気象台発表
新潟地域」大雨,洪水警報」雷注意報」
岩船地域」大雨,雷,洪水注意報」
新発田地域」大雨,洪水警報」雷注意報」
五泉地域」大雨,洪水警報」雷注意報」
長岡地域」大雨,洪水警報」雷注意報」
三条地域」大雨,洪水警報」雷注意報」
魚沼北部地域」大雨警報」雷,洪水注意報」
柏崎地域」大雨,雷注意報」
魚沼南部地域」雷注意報」
十日町地域」雷注意報」
上越」雷注意報」
佐渡」大雨,洪水警報」雷注意報」
((新潟、新発田、五泉、長岡、三条、魚沼北部地域及び佐渡地方ではこれ
から10日夕方まで1時間に50ミリの非常に激しい雨の降る所があるでし
ょう。土砂災害、河川の増水、低地の浸水に厳重に警戒してください。))


149 :名無しSUN:2005/08/10(水) 12:12:52 ID:PaUZgIQP
新潟地域 [発表]大雨,洪水警報 [継続]雷注意報
 特記事項 土砂災害警戒 浸水警戒
 雨 10日夕方まで
   1時間最大雨量 山沿い 50ミリ 平地 40ミリ
 付加事項 突風

岩船地域 [継続]大雨,雷,洪水注意報
 特記事項 土砂災害注意 浸水注意
 雨 11日昼前まで ピークは10日昼過ぎ
   1時間最大雨量 山沿い 40ミリ 平地 35ミリ
   24時間最大雨量 山沿い 130ミリ 平地 130ミリ
 付加事項 突風

新発田地域 [発表]大雨,洪水警報 [継続]雷注意報
 特記事項 土砂災害警戒 浸水警戒
 雨 10日夕方まで
   1時間最大雨量 山沿い 50ミリ 平地 40ミリ
 付加事項 突風

五泉地域 [発表]大雨,洪水警報 [継続]雷注意報
 特記事項 土砂災害警戒 浸水警戒
 雨 10日夕方まで
   1時間最大雨量 山沿い 50ミリ 平地 40ミリ
 付加事項 突風


150 :名無しSUN:2005/08/10(水) 12:13:58 ID:PaUZgIQP
長岡地域 [発表]洪水警報 [継続]大雨警報 雷注意報
 特記事項 土砂災害警戒 浸水警戒
 雨 10日夕方まで ピークは10日昼前
   1時間最大雨量 山沿い 40ミリ 平地 40ミリ
 付加事項 突風

三条地域 [発表]大雨,洪水警報 [継続]雷注意報
 特記事項 土砂災害警戒 浸水警戒
 雨 10日夕方まで
   1時間最大雨量 山沿い 50ミリ 平地 40ミリ
 付加事項 突風

魚沼北部地域 [継続]大雨警報 雷,洪水注意報
 特記事項 土砂災害警戒 浸水警戒
 雨 10日夕方まで
   1時間最大雨量 30ミリ
 付加事項 突風

佐渡 [継続]大雨,洪水警報 雷注意報
 雨 10日昼過ぎまで
   1時間最大雨量 45ミリ

お知らせ 平成16年新潟県中越地震により大雨注意報・警報の基準を引き
下げて運用している地域があります。

151 :名無しSUN:2005/08/10(水) 13:31:57 ID:a6ih0yLK
なんかテレビの速報で三条で71mm、どっかで80mmとか出てた…
70〜80って…アフォでしょ・・・・・・

152 :名無しSUN:2005/08/10(水) 13:53:23 ID:ZyJOL+rw
内野の方は全然降ってないな 11時くらいにすごかったけど

153 :名無しSUN:2005/08/10(水) 14:08:52 ID:O0lhx6NE
>>151
三条は13時までで97mm(前後)
新潟が76(前後)だそうです

154 :名無しSUN:2005/08/10(水) 14:30:22 ID:bqaPMGqy
>>153
それって今日の累計ですよね?NHKの速報見てたら、てっきり1時間雨量かと思たよ。

155 :名無しSUN:2005/08/10(水) 14:35:51 ID:O0lhx6NE
多分一時間の降水量だと思います。

朝方見た時は、長岡は70mm代でしたが
13時観測の時は30mm代でしたので。

156 :名無しSUN:2005/08/10(水) 14:45:43 ID:O0lhx6NE
大間違いでした。

24時間の降水量のようです。

157 :名無しSUN:2005/08/10(水) 15:31:15 ID:joaTljtI
2005年8月10日 12時              2005年8月10日 13時
1 新潟県 巻 24.0mm                1 新潟県 村松 50.0mm
2 茨城県 江戸崎 21.5mm            2 新潟県 三条 31.5mm
3 新潟県 宝珠山 18.0mm            3 新潟県 寺泊 17.5mm
4 新潟県 三条 16.0mm              4 新潟県 津川 16.5mm
5 新潟県 津川 12.5mm              5 新潟県 宮寄上 14.5mm
6 新潟県 新津 12.0mm              6 京都府 三和 13.5mm
7 福島県 金山 11.0mm              7 福島県 西会津 12.5mm
8 新潟県 羽茂 10.5mm              8 福島県 稲荷峠 12.5mm
9 新潟県 村松 9.0mm.              9 新潟県 二王子岳 12.0
10 福島県 博士峠 8.5mm            10 新潟県 新津 11.5mm
11 新潟県 赤谷 8.0mm              11 岡山県 笠岡 12.0mm
12 新潟県 室谷 7.0mm              12 広島県 東広島 12.0m
13三重県 名張 6.5mm              13 新潟県 室谷 11.0mm
14 富山県 八尾 6.0mm              14 福島県 喜多方 9.0mm
15 福島県 南郷 5.5mm              15 広島県 広島 7.5mm
16 広島県 庄原 5.5mm              16 福島県 猪苗代 7.0mm
17 千葉県 佐倉 5.5mm              17 新潟県 赤谷 7.0mm
18 千葉県 佐原 5.0mm              18 千葉県 銚子 5.5mm
19 新潟県 新潟 5.0mm              19 広島県 河内 5.5mm
20 富山県 大山 5.0mm              20 新潟県 巻 5.0mm

158 :名無しSUN:2005/08/10(水) 15:32:08 ID:joaTljtI
2005年8月10日 14時
順位 府県名 地点名 降水量(mm/h)
1 新潟県 三条 49.0mm
2 新潟県 宮寄上 40.0mm
3 山口県 岩国 35.5mm
4 新潟県 室谷 27.0mm
5 新潟県 巻 19.5mm
6 岡山県 岡山 16.0mm
7 大分県 杵築 13.5mm
8 広島県 竹原 10.5mm
9 福島県 若松 9.5mm
10 高知県 高知 7.5mm
11 新潟県 津川 7.0mm
11 福島県 西会津 7.0mm
11 福島県 郡山 7.0mm
14 三重県 藤坂峠 6.5mm
15 岡山県 倉敷 6.0mm
15 福島県 喜多方 6.0mm
17 島根県 匹見 5.0mm
17 高知県 後免 5.0mm
17 福島県 湖南 5.0mm
17 福島県 猪苗代 5.0mm
17 岩手県 藪川 5.0mm
22 福島県 鷲倉 4.0mm
22 福島県 金山 4.0mm

159 :名無しSUN:2005/08/10(水) 15:32:43 ID:joaTljtI
2005年8月10日 15時現在
順位 府県名 地点名 降水量(mm/h)
1 新潟県 村松 34.5mm
2 新潟県 室谷 25.5mm
3 島根県 波佐 22.5mm
4 広島県 広島 18.0mm
5 山形県 小国 16.5mm
6 新潟県 宮寄上 15.0mm
7 京都府 和知 12.5mm
8 福島県 小野新町 12.0mm
9 広島県 廿日市津田 11.5mm
9 新潟県 巻 11.5mm
11 福島県 稲荷峠 8.0mm
12 広島県 恵下谷山 7.0mm
12 新潟県 栃尾 7.0mm
14 山口県 玖珂 6.5mm
14 滋賀県 信楽 6.5mm
16 福島県 川前 6.0mm
16 福島県 郡山 6.0mm
18 山口県 羅漢山 5.5mm
18 広島県 油木 5.5mm
18 広島県 八幡 5.5mm
18 福島県 金山 5.5mm
22 福島県 喜多方 5.0mm
23 広島県 大竹 4.5mm
24 福島県 川内 4.0mm
25 福島県 猪苗代 3.5mm
25 岡山県 和気 3.5mm
25 新潟県 長岡 3.5mm
25 福島県 湖南 3.5mm
25 福島県 吾妻山 3.5mm
25 山形県 中津川 3.5mm

160 :名無しSUN:2005/08/10(水) 17:27:15 ID:joaTljtI
大雨と雷に関する新潟県気象情報  第8号
平成17年8月10日16時35分 新潟地方気象台発表

新潟、三条、長岡、五泉地域と佐渡では引き続き1時間に30ミリ以上の激しい雨の降る恐れがあります。
土砂災害、河川の氾濫、低地の浸水に厳重に警戒して下さい。
[要因]
日本海から東北地方にのびる前線に向かって、湿った空気が大量に流れ込み、
大気の状態が非常に不安定となっています。
[雨の予想]これから10日夜遅くにかけての1時間雨量は、多い所で
下越30ミリ
中越30ミリ
上越10ミリ
佐渡30ミリ

また、これから10日夜遅くまでの雨量は多い所で
下越 70ミリ
中越 70ミリ
上越 20ミリ
佐渡 70ミリの見込みです。

[雨の実況]
9日21時(降り始め)から10日16時までの総降水量は
新潟79ミリ 巻127ミリ 村松130ミリ 阿賀町室谷147ミリ寺泊81ミリ 三条147ミリ 加茂市宮寄上129ミリ 
栃尾市守門岳76ミリ 佐渡市相川59ミリとなっています。
 
[防災事項]
寺泊町、弥彦村、巻町、新潟市岩室、分水町、加茂市、田上町、村松町では
土砂災害の危険性が過去数年間で、最も高まっています。土砂災害に厳重に警戒して下さい。
また、新潟、五泉、長岡、三条地域では10日夜遅くまで激しい雨が予想され、
この地域の河川では洪水の恐れが高まっています。河川の状況に警戒して下さい。

161 :名無しSUN:2005/08/10(水) 17:44:14 ID:joaTljtI
信濃川下流・中ノ口川 洪水予報 第1号
平成17年8月10日17時15分
信濃川下流河川事務所・巻土木事務所・新潟地方気象台 共同発表

種類
信濃川下流・中ノ口川 洪水注意報発表


162 :名無しSUN:2005/08/10(水) 19:25:28 ID:cpIOD6gr
三条の竜巻って気象庁公認したの?
共同通信は竜巻って報道しているけどNHKは突風でスルーした(w

http://headlines.yahoo.co.jp/hl?a=20050810-00000159-kyodo-soci

163 :名無しSUN:2005/08/10(水) 21:48:47 ID:fMEP1X6v
RJSN 100900Z 100918 28008KT 9000 FEW010 SCT020 BKN030
TEMPO 0912 4000 SHRA
BECMG 1012 20007KT

RJSN 100900Z 101812 20008KT 8000 FEW015 BKN030
TEMPO 1824 3000 SHRA BR
BECMG 0103 26010KT

164 :名無しSUN:2005/08/11(木) 15:03:30 ID:q5WKlv7Q
新潟県記録的短時間大雨情報 第5号
平成17年8月11日05時15分 新潟地方気象台発表

 5時新潟県で記録的短時間大雨
 朝日村南東部付近で約70ミリ

RJSN 110300Z 110312 17006KT 8000 FEW020 SCT030 BKN080
BECMG 0406 24008KT

RJSN 110300Z 111206 20009KT 9000 FEW010 SCT020 BKN030
TEMPO 1802 4000 -SHRA BR
TEMPO 0206 1500 +SHRA BR FEW005 SCT010 FEW015CB BKN020

165 :名無しSUN:2005/08/11(木) 15:06:34 ID:q5WKlv7Q
大雨と雷に関する新潟県気象情報 第15号
平成17年8月11日11時18分 新潟地方気象台発表

村上市、朝日村、山北町では過去数年間で最も土砂災害の危険性が高まって
おり、岩船地域では水位の高くなっている河川があります。岩船地域では引
き続き土砂災害、河川の氾濫、低地の浸水に厳重に警戒して下さい。

[要因]
 東北地方南部に停滞している前線に向かって、湿った空気が大量に流れ込み、
大気の状態が非常に不安定となっています。

[雨の予想]
 岩船地域で降っていた非常に激しい雨のピークは過ぎつつありますが、
11日昼過ぎまで多い所で1時間に30ミリの激しい雨が降るでしょう。

[雨の実況]
11日0時から11日11時までの総降水量は多いところで
 朝日村高根 279ミリ   朝日村三面  72ミリ   となっています。
 
[防災事項]
 村上市、朝日村、山北町では、過去数年で最も土砂災害の危険性が高まっています。
 また、岩船地域では、これまでの大雨により、洪水のおそれが高まっています。 
 引き続き11日夕方にかけ、土砂災害、河川の氾濫、低地の浸水に厳重に警戒して下さい。

[特記事項]
 現在、岩船地域に大雨・洪水警報を発表中です。
 今後、気象台が発表する注意報、警報、気象情報に留意してください。

166 :名無しSUN:2005/08/11(木) 17:15:16 ID:q5WKlv7Q
観測史上1位の値 更新状況(昨日8月10日) 24時現在

  日最大1時間降水量
新潟県 三条 72mm 13時30分

  日降水量
新潟県 巻.    127mm  これまでの1位の値114mm 1978年8月17日
新潟県 三条   147mm  これまでの1位の値143mm 1976年8月14日
新潟県 村松   131mm  これまでの1位の値131mm 1998年8月12日 [タイ記録]
新潟県 宮寄上 143mm  これまでの1位の値122mm 1983年8月18日
新潟県 室谷   162mm  これまでの1位の値136mm 1995年8月2日

167 :名無しSUN:2005/08/11(木) 21:51:19 ID:snKHAd2Z
RJSN 111222Z 111218 26007KT 6000 -SHRA FEW015 SCT025 BKN035
TEMPO 1218 2500 TSRA BR FEW005 SCT010 FEW015CB BKN025

168 :名無しSUN:2005/08/12(金) 14:24:09 ID:UFrFp6vW
観測史上1位の値 更新状況(昨日8月11日) 24時現在
  日降水量
新潟県高根.    289mm  これまでの1位の値216mm 1981年6月22日

RJSN 120300Z 120312 20010KT 8000 -SHRA FEW015 SCT025 BKN040
TEMPO 0307 3000 +SHRA BR FEW010 SCT015 FEW015CB BKN025
TEMPO 0712 4000 SHRA BR

RJSN 120300Z 121206 20008KT 7000 -SHRA FEW010 SCT015 BKN025
TEMPO 1524 4000 -SHRA BR
BECMG 0103 28010KT

169 :名無しSUN:2005/08/12(金) 22:39:23 ID:MFdZ85Ic
RJSN 120900Z 120918 21007KT 8000 -SHRA FEW010 SCT020 BKN035
TEMPO 1218 4000 SHRA BR

170 :名無しSUN:2005/08/13(土) 09:02:25 ID:hGlj5Q+Y

現地災害調査速報
平成17年8月10日に新潟県三条市で発生したたつ巻による風害

1 突風の原因と気象概況
8月10日13時30分頃から14時頃にかけて、新潟県三条市で突風が発生した。こ
のため、工場の屋根が飛ばされる、民家の屋根瓦が飛ぶなどの被害が発生した。

1-1 突風の原因の推定
今回発生した突風の原因は、現地災害調査結果等から「たつ巻」によるものと
推定される。
レーダー観測等では被害発生当時、活発な積乱雲が近くを通過していることか
ら「たつ巻」や「ダウンバースト」が考えられるが、次の@〜Aの状況から「た
つ巻」によるものと推定される。

@被害地域を移動するたつ巻を目撃した人が複数いる
Aゴーという轟音を体験した人が複数いる
B物干し台が持ち上げられるなど吸い上げられた形跡がある
なお、今回のたつ巻の規模は、被害状況から藤田スケールF0〜F1と推定される。

171 :名無しSUN:2005/08/13(土) 21:56:07 ID:0zxJzLVZ
RJSN 130900Z 130918 24008KT 9000 -SHRA FEW010 BKN025
TEMPO 1114 SHRA

172 :名無しSUN:2005/08/15(月) 13:06:35 ID:yej1iBbv
RJSN 150300Z 150312 26012KT 9999 FEW008 FEW015CB SCT020 BKN035
TEMPO 0612 3000 SHRA BR
BECMG 0911 01007KT

173 :名無しSUN:2005/08/16(火) 10:51:00 ID:V/q3q5pC
RJSN 160000Z 160009 01011KT 9999 FEW020 SCT040

RJSN 152100Z 160624 02010KT 9999 FEW030
BECMG 1214 13007KT

174 :名無しSUN:2005/08/18(木) 13:35:47 ID:4OeOjUmG
2005年8月18日 13時現在
順位 府県名 地点名 気温(℃)
1 大分県 犬飼 35.8℃
2 兵庫県 豊岡 34.8℃
2 佐賀県 伊万里 34.8℃
4 福岡県 飯塚 34.4℃
5 京都府 舞鶴 34.2℃
6 福井県 小浜 34.1℃
7 新潟県 小出 34.0℃ キタ━━━━━(゚∀゚)━━━━━!!!!
8 長野県 飯山 33.9℃
9 鹿児島県 宮之城 33.8℃
9 鳥取県 鳥取 33.8℃
9 徳島県 木頭 33.8℃
12 鳥取県 倉吉 33.7℃
12 大阪府 豊中 33.7℃
14 奈良県 奈良 33.6℃
15 大阪府 堺 33.5℃
15 岡山県 久世 33.5℃
15 福岡県 甘木 33.5℃
15 新潟県 新津 33.5℃ キタ━━━━━(゚∀゚)━━━━━!!!
19 山口県 山口 33.4℃
19 大分県 日田 33.4℃
19 福岡県 福岡 33.4℃
19 熊本県 三角 33.4℃
19 熊本県 八代 33.4℃
24 岡山県 高梁 33.3℃
24 大分県 国見 33.3℃
24 大分県 宇目 33.3℃
24 京都府 福知山 33.3℃
28 京都府 宮津 33.2℃
29 宮崎県 神門 33.1℃
29 千葉県 木更津 33.1℃

175 :名無しSUN:2005/08/18(木) 13:41:02 ID:4OeOjUmG
2005年8月18日 10時現在
順位 府県名 地点名 気温(℃)
1 大阪府 堺 34.2 ℃
2 鳥取県 米子 32.2℃
3 新潟県 高田 32.1℃ キタ━━━━━(゚∀゚)━━━━━!!!!
4 京都府 間人 31.9℃
5 大分県 竹田 31.9℃
6 熊本県 本渡 31.9℃
7 大阪府 豊中 31.7℃
8 鳥取県 鳥取 31.7℃
9 徳島県 徳島 31.6℃
10 鹿児島県 鹿屋 31.6


176 :名無しSUN:2005/08/18(木) 15:33:50 ID:btUWfjdC
夕立で下がったかな?

177 :名無しSUN:2005/08/18(木) 17:20:28 ID:9s6qo+aS
五泉市 さっきまで 雷雨でひゃんでかったよ 雷もかなり落ちたよ

178 :名無しSUN:2005/08/18(木) 17:21:32 ID:xg2J1xz3
県央はまだ雨は降っていませんが、
大雨洪水警報が出た様です。

179 :名無しSUN:2005/08/18(木) 18:24:31 ID:o414KHh/
新潟県の雨量情報、雷情報 by Tepco
http://www0.thunder.ne.jp/cgi-bin/main.cgi?area=7&type=1&zoom=4

180 :名無しSUN:2005/08/18(木) 22:54:50 ID:D9gleDL9
雷は 遠くから眺めている方がいいや

181 :名無しSUN:2005/08/19(金) 23:40:16 ID:mqgBaZL+
お知らせ

気象庁ホームページの防災気象情報について、
8月22日(月)14時15分から15時15分
の間、試験のため一時更新を停止いたします。

                        (以上)

182 :名無しSUN:2005/08/20(土) 10:21:30 ID:AeXtmAUQ
2005年8月20日 9時現在(毎時更新)

順位 府県名 地点名 気温(℃)
1 大阪府 堺 32.0℃
1 石川県 小松 32.0℃
3 千葉県 牛久 31.9℃
4 神奈川県 海老名 31.5℃
5 石川県 富来 31.4℃
6 新潟県 高田 31.1℃  キタ━━━━━(゚∀゚)━━━━━!!!!
7 千葉県 茂原 30.9℃
8 千葉県 木更津 30.8℃
9 鳥取県 米子 30.7℃
9 東京都 練馬 30.7℃
9 鳥取県 智頭 30.7℃
9 福井県 福井 30.7℃
13 石川県 金沢 30.6℃
13 茨城県 龍ケ崎 30.6℃
13 大阪府 大阪 30.6℃
13 新潟県 大潟 30.6℃  キタ━━━━━(゚∀゚)━━━━━!!!!


183 :名無しSUN:2005/08/20(土) 10:32:32 ID:AeXtmAUQ
2005年8月20日 10時現在
順位 府県名 地点名 気温(℃)
1 石川県 小松 33.3℃
2 神奈川県 小田原 33.2℃
2 千葉県 牛久 33.2℃
4 京都府 福知山 32.9℃
4 石川県 金沢 32.9℃
6 大阪府 堺 32.4℃
7 新潟県 高田 32.3℃ キタ━━━━━(゚∀゚)━━━━━! 
7 富山県 富山 32.3℃
7 千葉県 木更津 32.3℃
10 大阪府 豊中 32.1℃
10 千葉県 茂原 32.1℃
12 富山県 伏木 32.0℃
12 東京都 東京 32.0℃
14 大阪府 枚方 31.9℃
14 京都府 宮津 31.9℃
14 神奈川県 海老名 31.9℃
17 新潟県 柏崎 31.8℃   キタ━━━━━(゚∀゚)━━━━━!!!!
17 福井県 福井 31.8℃
17 石川県 羽咋 31.8℃
20 鳥取県 米子 31.7℃
20 京都府 舞鶴 31.7℃
20 石川県 輪島 31.7℃
20 東京都 練馬 31.7℃
24 千葉県 鴨川 31.6℃
24 千葉県 横芝 31.6℃
24 茨城県 古河 31.6℃
24 福井県 小浜 31.6℃
24 新潟県 大潟 31.6℃ キタ━━━━━(゚∀゚)━━━━━!



184 :名無しSUN:2005/08/20(土) 19:07:36 ID:IMOpdUyC
うひゃ〜雷スゴかった@長岡
小河川の氾濫で床下浸水もあったみたい。

185 :名無しSUN:2005/08/20(土) 19:12:20 ID:GSqVkCeY
RJSN 200900Z 200918 03008KT 9999 FEW030 BKN080
TEMPO 1013 3000 +SHRA FEW010 FEW015CB BKN025

186 :名無しSUN:2005/08/21(日) 15:00:36 ID:aeUfIJS8
2005年8月21日 14時現在

1 群馬県 館林 36.5℃
2 新潟県 小出 35.1℃  キタ━━━━━(゚∀゚)━━━━━!!!!!
2 茨城県 古河 35.1℃
4 埼玉県 熊谷 34.9℃
5 新潟県 長岡 34.7℃  キタ━━━━━(゚∀゚)━━━━━!!!!!
5 栃木県 小山 34.7℃
7 埼玉県 鳩山 34.6℃
8 新潟県 新津 34.4℃   キタ━━━━━(゚∀゚)━━━━━!!!!!
9 埼玉県 越谷 34.2℃
9 新潟県 中条 34.2℃  キタ━━━━━(゚∀゚)━━━━━!!!!!
11 栃木県 宇都宮 34.0℃
12 茨城県 鉾田 33.9℃
12 山形県 米沢 33.9℃
12 石川県 金沢 33.9℃
12 石川県 かほく 33.9℃
16 山形県 山形 33.8℃
16 新潟県 村上 33.8℃  キタ━━━━━(゚∀゚)━━━━━!!!!!
18 新潟県 三条 33.7℃  キタ━━━━━(゚∀゚)━━━━━!!!!!
18 新潟県 十日町 33.7℃  キタ━━━━━(゚∀゚)━━━━━!!!!!
20 群馬県 伊勢崎 33.6℃
20 千葉県 牛久 33.6℃
20 栃木県 真岡 33.6℃
20 埼玉県 久喜 33.6℃
24 新潟県 津川 33.5℃  キタ━━━━━(゚∀゚)━━━━━!!!!!
24 千葉県 横芝 33.5℃
24 新潟県 下関 33.5℃  キタ━━━━━(゚∀゚)━━━━━!!!!!
27 東京都 練馬 33.2℃
27 新潟県 入広瀬 33.2℃  キタ━━━━━(゚∀゚)━━━━━!!!!!
29 群馬県 桐生 33.1℃
29 栃木県 塩谷 33.1℃

187 :名無しSUN:2005/08/21(日) 16:20:47 ID:N50HRv3T
さて今日もゴロゴロ始まりますた。

188 :名無しSUN:2005/08/21(日) 17:31:48 ID:aeUfIJS8
RJSN 210736Z 210715 02008KT 9000 FEW020 BKN030 BKN050
TEMPO 0715 4000 TSRA FEW008 SCT010 FEW015CB BKN020
BECMG 1315 22008KT

189 :名無しSUN:2005/08/21(日) 17:58:44 ID:aeUfIJS8
08月21日15時現在.                08月21日16時現在
1 群馬県 館林 35.3℃              1 山形県 山形 34.2℃
2 新潟県 中条 34.6℃              2 群馬県 伊勢崎 34.0℃
3 新潟県 新津 34.6℃  ♠            3 新潟県 新津 33.5℃  ♠
4 山形県 村山 34.5℃              4 山形県 左沢 33.4℃
5 山形県 山形 34.5℃              5 新潟県 長岡 33.4℃  ♠
6 茨城県 古河 34.2℃              6 茨城県 古河 33.3℃
7 新潟県 長岡 34.3℃  ♠           7 山形県 村山 33.2℃
8 栃木県 小山 33.9℃              8 新潟県 中条 33.1℃  ♠
9 埼玉県 越谷 33.9℃              9 福島県 梁川 33.0℃
10 新潟県 小出 33.9℃. ♠           10 群馬県 館林 33.0℃
11 新潟県 村上 33.2℃. ♠           11 新潟県 小出 32.9℃ ♠ 
12 群馬県 伊勢崎 33.7℃            12 栃木県 小山 32.8℃
13 埼玉県 熊谷 33.7℃.             13 埼玉県 熊谷 32.8℃
14 山形県 米沢 33.5℃.             14 新潟県 村上 32.8℃ ♠
15 群馬県 桐生 33.3℃.             15 新潟県 下関 32.8℃ ♠
16 新潟県 下関 33.3℃. ♠            16 栃木県 真岡 32.7℃
17 福島県 梁川 33.2℃.             17 秋田県 角館 32.6℃
18 栃木県 宇都宮 33.2℃            18 栃木県 宇都宮 32.6℃
19 栃木県 真岡 33.2℃.             19 茨城県 大子 32.5℃
20 東京都 青梅 33.2℃.             20 埼玉県 越谷 32.5℃

190 :名無しSUN:2005/08/21(日) 17:59:39 ID:aeUfIJS8
08月21日 17時現在
1 群馬県 伊勢崎 33.2℃
2 群馬県 館林 32.2℃
2 茨城県 古河 32.2℃
4 埼玉県 熊谷 32.1℃
5 山形県 山形 32.0℃
5 新潟県 下関 32.0℃
5 新潟県 村上 32.0℃
8 秋田県 岩見三内 31.7℃
8 山形県 左沢 31.7℃
8 秋田県 角館 31.7℃
8 福島県 上遠野 31.7℃
12 宮崎県 宮崎 31.6℃
12 宮崎県 西都 31.6℃
14 埼玉県 越谷 31.5℃
14 栃木県 小山 31.5℃
16 秋田県 矢島 31.4℃
16 新潟県 中条 31.4℃
18 千葉県 牛久 31.3℃
18 新潟県 小出 31.3℃
18 栃木県 宇都宮 31.3℃
21 埼玉県 鳩山 31.2℃
21 福島県 福島 31.2℃
21 福島県 梁川 31.2℃
24 栃木県 真岡 31.1℃
24 沖縄県 久米島 31.1℃
26 新潟県 新潟 31.0℃

191 :名無しSUN:2005/08/21(日) 18:19:06 ID:Qv4Pwz8V
また西蒲原周辺だけ降らないのかよ。いつもこれだ。
昨日も少し湿るぐらい降って外は猛烈なサウナ。
8/10並の雨を希望。

192 :名無しSUN:2005/08/22(月) 16:03:35 ID:gLzJqGK+
RJSN 220600Z 220615 30008KT 9000 SCT020 BKN080
BECMG 0911 16006KT
TEMPO 1215 4000 SHRA FEW010 FEW015CB SCT020 BKN030

193 :名無しSUN:2005/08/23(火) 02:03:57 ID:Cuu48/gi
RJSN 220903Z 220918 01005KT 9000 -SHRA FEW010 FEW015CB BKN030
TEMPO 1015 4000 TSRA
TEMPO 1518 01018G28KT 2500 SHRA BR

194 :名無しSUN:2005/08/25(木) 22:38:55 ID:wSdtCEaI
フェーンで気温が上がってきた

195 :名無しSUN:2005/08/26(金) 10:18:13 ID:vVP/QyDz
台風去って 秋の気配

高相当温位線もようやく下がって行くので すごし易くなるべ

196 :名無しSUN:2005/08/27(土) 22:43:59 ID:7KiBZx6i
RJSN 270900Z 271812 19007KT 9999 FEW020 SCT030
BECMG 0103 26010KT

197 :名無しSUN:2005/08/28(日) 22:04:13 ID:coMHz/7v
台風13号 進路変更 大陸上陸せず対馬海峡を目指すとか

198 :名無しSUN:2005/08/29(月) 15:31:14 ID:i3rf+dDm
RJSN 290300Z 291206 15005KT 9999 FEW030
BECMG 0103 33010KT

199 :名無しSUN:2005/08/29(月) 21:20:21 ID:y0u2HW+9
積雪4mとか5mとかしっかり公表しる
観測地増やせよ、ばか

200 :名無しSUN:2005/08/29(月) 23:06:50 ID:LQMsTu1I
台風14号は、東京に興味をもったようです。
新潟にはくんな!

201 :名無しSUN:2005/08/30(火) 00:47:42 ID:DeP3E923
東京に興味をもったのは、台風15号だろう?

202 :名無しSUN:2005/08/30(火) 21:49:59 ID:aaf6xvBC
14号は、四国にいってやれよ

203 :名無しSUN:2005/09/02(金) 11:06:59 ID:W5W5k856
2005年9月2日 10時現在(毎時更新)
順位 府県名 地点名 気温(℃)
1 鳥取県 智頭 33.0℃
2 大阪府 堺 32.3℃
2 京都府 宮津 32.3℃
2 島根県 益田 32.3℃
2 石川県 山中 32.3℃
6 福井県 小浜 32.1℃
7 島根県 大田 31.9℃
8 熊本県 八代 31.8℃
9 福岡県 黒木 31.7℃
9 福井県 美浜 31.7℃
11 静岡県 佐久間 31.6℃
12 沖縄県 名護 31.5℃
12 宮崎県 加久藤 31.5℃
14 福岡県 八幡 31.4℃
14 新潟県 新津 31.4℃  キタ━━━━━(゚∀゚)━━━━━!!!!!
16 新潟県 下関 31.3℃  キタ━━━━━(゚∀゚)━━━━━!!!!!



204 :名無しSUN:2005/09/02(金) 15:06:11 ID:RJ9X7w52
2005年9月2日 14時

粟島 29.6℃
二ツ亀 30.4℃
弾崎 30.4℃
相川 28.8℃
両津 30.1℃
村上 31.3℃
中条 32.6℃
下関 31.0℃
新潟 30.6℃
羽茂 29.7℃
新津 32.4℃
巻 31.1℃
寺泊 31.0℃
三条 31.5℃
津川 31.2℃
長岡 31.1℃
柏崎 31.0℃
入広瀬 26.9℃
湯沢 29.5℃
安塚 29.0℃
十日町 29.4℃
津南 27.4℃
大潟 30.5℃
小出 30.5℃
高田 30.9℃
糸魚川 31.0℃
能生 29.5℃
関山 28.0℃

205 :名無しSUN:2005/09/03(土) 02:09:14 ID:lNIx4n3y
久し振りに雷ゴロゴロ、キター!!

206 :名無しSUN:2005/09/05(月) 23:53:40 ID:l/tOYOSa
<07日21時の予報>
強さ 強い
存在地域 日本海
予報円の中心 北緯 40度00分(40.0度)
東経 136度30分(136.5度)
中心気圧 965hPa
中心付近の最大風速 35m/s(65kt)
予報円の半径 300km(160NM)
暴風警戒域 南東側 460km(250NM)
北西側 430km(230NM)

207 :名無しSUN:2005/09/07(水) 04:55:43 ID:iQb3KV5p
雲に反射して綺麗な朝焼けだなぁ。
地震厨が騒ぎ出しそうだ。

208 :名無しSUN:2005/09/07(水) 10:14:40 ID:7p2p3Flo
2005年9月2日 07時

1 新潟県 小出 31.3℃  キタ━━━━━(゚∀゚)━━━━━!!!!!
2 新潟県 三条 30.1℃  キタ━━━━━(゚∀゚)━━━━━!!!!!
3 新潟県 村上 29.8℃  キタ━━━━━(゚∀゚)━━━━━!!!!!
4 新潟県 糸魚川 29.8℃  キタ━━━━━(゚∀゚)━━━━━!!!!!
5 富山県 富山 29.8 ℃
6 富山県 氷見 29.7℃
7 石川県 金沢 29.6℃
8 石川県 七尾 29.5℃
9 新潟県 下関 29.4℃  キタ━━━━━(゚∀゚)━━━━━!!!!!
10 富山県 砺波 29.4℃
11 徳島県 徳島 29.4℃
12 石川県 羽咋 29.3℃
13 新潟県 中条 29.1℃  キタ━━━━━(゚∀゚)━━━━━!!!!!
14 新潟県 高田 29.1℃  キタ━━━━━(゚∀゚)━━━━━!!!!!
15 大阪府 大阪 29.0℃
16 大阪府 豊中 28.9℃
17 新潟県 羽茂 28.8℃  キタ━━━━━(゚∀゚)━━━━━!!!!!
18 新潟県 大潟 28.8℃  キタ━━━━━(゚∀゚)━━━━━!!!!!
19 秋田県 八森 28.7℃
20 新潟県 新潟 28.7℃  キタ━━━━━(゚∀゚)━━━━━!!!!!

209 :名無しSUN:2005/09/07(水) 10:17:38 ID:7p2p3Flo
2005年9月2日 08時

1 新潟県 小出 31.9℃  キタ━━━━━(゚∀゚)━━━━━!!!!!
2 石川県 山中 30.7℃
3 新潟県 三条 30.1℃  キタ━━━━━(゚∀゚)━━━━━!!!!!
4 新潟県 村上 30.0℃  キタ━━━━━(゚∀゚)━━━━━!!!!!
5 富山県 氷見 30.0℃
6 福井県 福井 30.0℃
7 石川県 金沢 29.9℃
8 新潟県 糸魚川 29.8℃  キタ━━━━━(゚∀゚)━━━━━!!!!!
9 富山県 伏木 29.8℃
10 富山県 富山 29.8℃
11 富山県 八尾 29.8℃
12 大阪府 大阪 29.8℃
13 大阪府 堺 29.8℃
14 新潟県 高田 29.7℃  キタ━━━━━(゚∀゚)━━━━━!!!!!
15 石川県 七尾 29.7℃
16 石川県 小松 29.6℃
17 大阪府 豊中 29.6℃
18 富山県 砺波 29.5℃
19 石川県 羽咋 29.5℃
20 徳島県 徳島 29.5℃


210 :名無しSUN:2005/09/07(水) 10:21:21 ID:7p2p3Flo
2005年9月7日 09時

1 富山県 上市 32.1℃
2 新潟県 小出 31.9℃  キタ━━━━━(゚∀゚)━━━━━!!!
2 新潟県 能生 31.9℃  キタ━━━━━(゚∀゚)━━━━━!!!
4 富山県 富山 31.4℃
5 徳島県 徳島 31.2℃
6 福井県 福井 31.0℃
7 石川県 小松 30.9℃
8 新潟県 糸魚川 30.7℃  キタ━━━━━(゚∀゚)━━━━━!!!
9 富山県 伏木 30.6℃
9 富山県 南砺高宮 30.6℃
11 富山県 砺波 30.5℃
12 香川県 高松 30.3℃
12 石川県 山中 30.3℃
12 新潟県 三条 30.3℃  キタ━━━━━(゚∀゚)━━━━━!!!
15 滋賀県 彦根 30.2℃
15 兵庫県 豊岡 30.2℃
17 石川県 七尾 30.1℃
17 富山県 氷見 30.1℃
17 埼玉県 越谷 30.1℃
17 千葉県 佐倉 30.1℃
21 新潟県 中条 30.0℃  キタ━━━━━(゚∀゚)━━━━━!!!
21 新潟県 高田 30.0℃  キタ━━━━━(゚∀゚)━━━━━!!!
21 茨城県 土浦 30.0℃
24 千葉県 千葉 29.9℃
24 山形県 山形 29.9℃
24 山形県 村山 29.9℃
27 茨城県 龍ケ崎 29.8℃
28 千葉県 我孫子 29.7℃
29 新潟県 新潟 29.6℃  キタ━━━━━(゚∀゚)━━━━━!!!
29 千葉県 茂原 29.6℃

211 :名無しSUN:2005/09/07(水) 13:56:50 ID:NceAheyi
2005年9月7日 13時
1 新潟県 能生 35.8℃  キタ━━━━━(゚∀゚)━━━━━!!!!!
1 富山県 泊 35.8℃
3 石川県 金沢 35.4℃
4 新潟県 小出 35.1℃  キタ━━━━━(゚∀゚)━━━━━!!!!!
4 新潟県 中条 35.1℃  キタ━━━━━(゚∀゚)━━━━━!!!!!
4 石川県 小松 35.1℃
7 富山県 魚津 35.0℃
8 新潟県 入広瀬 34.6℃  キタ━━━━━(゚∀゚)━━━━━!!!!!
9 富山県 砺波 34.4℃
10 石川県 かほく 34.3℃
10 富山県 伏木 34.3℃
10 新潟県 長岡 34.3℃  キタ━━━━━(゚∀゚)━━━━━!!!!!
13 石川県 羽咋 34.1℃
13 富山県 氷見 34.1℃
15 石川県 七尾 34.0℃
15 新潟県 糸魚川 34.0℃  キタ━━━━━(゚∀゚)━━━━━!!!!!
17 新潟県 大潟 33.9℃  キタ━━━━━(゚∀゚)━━━━━!!!!!
18 新潟県 三条 33.7℃  キタ━━━━━(゚∀゚)━━━━━!!!!!
18 富山県 南砺高宮 33.7℃
20 富山県 富山 33.6℃
21 新潟県 高田 33.5℃  キタ━━━━━(゚∀゚)━━━━━!!!!!
21 新潟県 安塚 33.5℃  キタ━━━━━(゚∀゚)━━━━━!!!!!
23 奈良県 五條 33.4℃
24 滋賀県 蒲生 33.2℃
25 福井県 敦賀 32.7℃
25 石川県 白山吉野 32.7℃
27 長野県 飯山 32.6℃
27 奈良県 奈良 32.6℃
29 富山県 上市 32.5℃
29 新潟県 新潟 32.5℃  キタ━━━━━(゚∀゚)━━━━━!!!!!

212 :名無しSUN:2005/09/07(水) 16:31:52 ID:NceAheyi
2005年9月7日 16時
1 新潟県 能生 35.8℃  キタ━━━━━(゚∀゚)━━━━━!!!!!
2 新潟県 三条 35.2℃  キタ━━━━━(゚∀゚)━━━━━!!!!!
3 新潟県 中条 34.8℃  キタ━━━━━(゚∀゚)━━━━━!!!!!
4 新潟県 柏崎 34.4℃  キタ━━━━━(゚∀゚)━━━━━!!!!!
5 新潟県 小出 34.3℃  キタ━━━━━(゚∀゚)━━━━━!!!!!
5 新潟県 長岡 34.3℃  キタ━━━━━(゚∀゚)━━━━━!!!!!
7 新潟県 安塚 34.1℃  キタ━━━━━(゚∀゚)━━━━━!!!!!
7 新潟県 高田 34.1℃  キタ━━━━━(゚∀゚)━━━━━!!!!!
7 秋田県 象潟 34.1℃
10 富山県 泊 34.0℃
11 新潟県 大潟 33.6℃  キタ━━━━━(゚∀゚)━━━━━!!!!!
12 三重県 津 33.2℃
12 新潟県 糸魚川 33.2℃  キタ━━━━━(゚∀゚)━━━━━!!!!!
14 新潟県 新潟 33.1℃  キタ━━━━━(゚∀゚)━━━━━!!!!!
15 新潟県 入広瀬 33.0℃  キタ━━━━━(゚∀゚)━━━━━!!!!!
15 富山県 魚津 33.0℃
15 高知県 中村 33.0℃
18 新潟県 新津 32.9℃  キタ━━━━━(゚∀゚)━━━━━!!!!!
19 新潟県 寺泊 32.6℃  キタ━━━━━(゚∀゚)━━━━━!!!!!
19 山形県 鼠ケ関 32.6℃
19 新潟県 巻 32.6℃  キタ━━━━━(゚∀゚)━━━━━!!!!!
22 富山県 八尾 32.4℃
23 新潟県 下関 32.2℃  キタ━━━━━(゚∀゚)━━━━━!!!!!
24 富山県 富山 31.9℃
25 長野県 飯山 31.8℃
25 新潟県 村上 31.8℃  キタ━━━━━(゚∀゚)━━━━━!!!!!
27 新潟県 津川 31.7℃  キタ━━━━━(゚∀゚)━━━━━!!!!!
27 福井県 小浜 31.7℃
29 埼玉県 秩父 31.6℃
29 滋賀県 蒲生 31.6℃


213 :名無しSUN:2005/09/07(水) 17:03:56 ID:NceAheyi
そろそろ来るかな 吹き返しの風・・・

214 :名無しSUN:2005/09/08(木) 01:10:38 ID:bGoyL5D3
071201Z 071218 25028KT 9999 FEW020 SCT030 BKN050
TEMPO 1218 25035G50KT SHRA

215 :名無しSUN:2005/09/08(木) 02:28:23 ID:hCAoaoGu
漸く強風が収まったみたい。
朝になったら待避した鉢物のリストア作業ぢゃ。

216 :名無しSUN:2005/09/10(土) 11:31:32 ID:jCR1DQNP
2005年9月10日 10時現在

1 石川県 小松 32.0℃
2 石川県 金沢 31.6℃
3 兵庫県 豊岡 31.4℃
4 石川県 白山吉野 31.3℃
5 富山県 八尾 31.2℃
6 新潟県 高田 31.0℃  キタ━━━━━(゚∀゚)━━━━━!!!!!
7 京都府 間人 30.9℃
7 福井県 福井 30.9℃
9 和歌山県 白浜 30.8℃
9 石川県 山中 30.8℃
11 大阪府 豊中 30.7℃
11 福井県 美浜 30.7℃
13 静岡県 佐久間 30.6℃
14 福井県 三国 30.5℃
15 新潟県 中条 30.4℃  キタ━━━━━(゚∀゚)━━━━━!!!!!


217 :名無しSUN:2005/09/10(土) 11:33:45 ID:jCR1DQNP
2005年9月10日 11時現在

1 石川県 小松 34.0℃
2 鳥取県 岩井 32.6℃
2 石川県 白山吉野 32.6℃
4 富山県 八尾 32.1℃
5 石川県 山中 32.0℃
5 福井県 福井 32.0℃
7 大阪府 豊中 31.8℃
8 京都府 間人 31.7℃
8 富山県 南砺高宮 31.7℃
10 静岡県 佐久間 31.6℃
11 石川県 金沢 31.5℃
11 兵庫県 豊岡 31.5℃
11 新潟県 高田 31.5℃  キタ━━━━━(゚∀゚)━━━━━!!!!!
11 新潟県 新津 31.5℃  キタ━━━━━(゚∀゚)━━━━━!!!!!
15 新潟県 小出 31.4℃  キタ━━━━━(゚∀゚)━━━━━!!!!!
16 京都府 京田辺 31.3℃
16 石川県 かほく 31.3℃
16 新潟県 三条 31.3℃  キタ━━━━━(゚∀゚)━━━━━!!!!!
19 千葉県 牛久 31.2℃
19 新潟県 巻 31.2℃  キタ━━━━━(゚∀゚)━━━━━!!!!!
19 新潟県 長岡 31.2℃  キタ━━━━━(゚∀゚)━━━━━!!!!!
22 奈良県 五條 31.1℃
23 富山県 砺波 31.0℃
24 新潟県 中条 30.9℃  キタ━━━━━(゚∀゚)━━━━━!!!!!
24 新潟県 新潟 30.9℃  キタ━━━━━(゚∀゚)━━━━━!!!!!
24 和歌山県 白浜 30.9℃
24 長野県 南信濃 30.9℃
24 新潟県 柏崎 30.9℃  キタ━━━━━(゚∀゚)━━━━━!!!!!

218 :名無しさん@そうだ選挙に行こう:2005/09/10(土) 21:54:19 ID:+e3KrDhy
2005年9月10日 12時現在

1 石川県 小松 32.8
2 千葉県 牛久 32.6
3 石川県 白山吉野 32.6
4 福井県 福井 32.4
5 長野県 飯山 32.2
6 新潟県 高田 32.2 キタ━━━━━(゚∀゚)━━━━━!!!
7 富山県 砺波 32.2
8 新潟県 小出 31.9 キタ━━━━━(゚∀゚)━━━━━!!!
9 兵庫県 豊岡 31.9
10 和歌山県 栗栖川 31.9
11 新潟県 三条 31.8 キタ━━━━━(゚∀゚)━━━━━!!!


219 :名無しさん@そうだ選挙に行こう:2005/09/10(土) 21:57:17 ID:+e3KrDhy
2005年9月10日 13時現在

1 長野県 飯山 33.9℃
2 奈良県 五條 33.3℃
3 静岡県 佐久間 32.9℃
4 新潟県 小出 32.9℃  キタ━━━━━(゚∀゚)━━━━━!!!!!
5 富山県 氷見 32.9℃
6 石川県 白山吉野 32.6℃
7 富山県 南砺高宮 32.2℃
8 千葉県 牛久 32.1℃
9 静岡県 天竜 32.1℃
10 新潟県 新津 32.1℃  キタ━━━━━(゚∀゚)━━━━━!!!!!
11 新潟県 三条 32.1℃  キタ━━━━━(゚∀゚)━━━━━!!!!!
12 長野県 南信濃 32.0℃
13 福井県 福井 31.9℃
14 愛知県 岡崎 31.8℃
15 新潟県 長岡 31.8℃  キタ━━━━━(゚∀゚)━━━━━!!!!!


220 :名無しさん@そうだ選挙に行こう:2005/09/10(土) 21:59:13 ID:+e3KrDhy
2005年9月10日 14時現在

1 石川県 小松 33.4
2 鳥取県 智頭 33.0
3 富山県 氷見 32.9
4 新潟県 小出 32.8 ♠
5 長野県 上田 32.6
6 千葉県 佐倉 32.4
7 静岡県 佐久間 32.4
8 福島県 福島 32.2
9 長野県 穂高 32.0
10 千葉県 船橋 31.9


221 :名無しさん@そうだ選挙に行こう:2005/09/10(土) 22:01:01 ID:+e3KrDhy
2005年9月10日 15時現在

1 千葉県 木更津 31.9
2 山梨県 勝沼 31.8
3 石川県 白山吉野 31.8
4 茨城県 龍ケ崎 31.7
5 静岡県 佐久間 31.7
6 埼玉県 さいたま 31.6
7 千葉県 我孫子 31.6
8 千葉県 佐倉 31.6
9 福島県 福島 31.5
10 静岡県 天竜 31.5
11 京都府 舞鶴 31.5
12 長野県 上田 31.4
13 新潟県 新津 31.4 ♠


222 :名無しSUN:2005/09/12(月) 02:44:12 ID:Rawq8Nru
台風14号の県内農作物被害

 県は9日、台風14号による県内の農業関係の被害状況の速報値(7日現在)を発表した。
被害があったのは佐渡市や新潟市など16市町村で、被害額は約2億3000万円に上った。
農作物被害の規模は211ヘクタール。
 最も被害が大きかったのは佐渡市で、おけさ柿をはじめとする果樹落果
や水稲倒伏など約1600ヘクタール、9900万円。

223 :名無しSUN:2005/09/12(月) 13:16:49 ID:ru/HvI5j
RJSN 120300Z 120312 31010KT 9999 FEW030
BECMG 1012 20006KT

224 :名無しSUN:2005/09/29(木) 22:47:22 ID:QYc50qKz
RJSN 290900Z 290918 04012KT 9999 FEW030
BECMG 1113 14012KT

225 :名無しSUN:2005/10/18(火) 14:30:29 ID:8JfyzKdt
10月9日 瓢湖に白鳥が来ました


226 :名無しSUN:2005/10/22(土) 15:07:08 ID:1IWNk5nD
低気圧に関する北陸地方気象情報 第2号
平成17年10月22日05時15分 新潟地方気象台発表

北陸地方では、22日から23日にかけて上空に強い寒気が流れ込み、海や山を中心に
荒れた天気となる見込みです。強風や高波、落雷、突風に注意して下さい。
また、標高の高い山岳部では雪が降るでしょう。

[要因]
 低気圧が発達しながら日本海を東に進み、低気圧からのびる寒冷前線が、
 22日昼前から夕方にかけて北陸地方(新潟県、富山県、石川県、福井県)
 を通過する見込みです。その後一時的に冬型の気圧配置となる見込みです。

[量的予報]
 22日から23日にかけて
 最大風速は 陸上で 12〜15メートル
            海上で 15〜20メートル
 波の高さは 3〜5メートル に達する見込みです。

[防災事項]
 海上や沿岸部では強風や高波に注意して下さい。
 また、大気の状態が不安定となるため、落雷や突風にも注意が必要です。

[特記事項]
 本州の上空5500メートル付近には氷点下24度以下の寒気が流れ込むため、
 22日から23日にかけて標高2000メートル以上の山岳部では雪となるでしょう。

227 :名無しSUN:2005/10/22(土) 22:08:25 ID:pHWQ8Dwy
豪雨

228 :名無しSUN:2005/10/23(日) 10:20:46 ID:KomHP4ka
低気圧に関する新潟県気象情報 第4号
平成17年10月23日05時40分 新潟地方気象台発表

新潟県では、23日夜にかけて一時的に冬型の気圧配置が強まり、強風と高波が予想されます。
大雨になる所もあるでしょう。落雷、突風、ひょうにも注意して下さい。

[要因]
 23日には北海道の東海上で低気圧が発達し、一時的に強い冬型の気圧配置となる見込みです。

[雨の予想]
 新潟県では、23日夜にかけて大気の状態が不安定で、1時間20ミリから30ミリの
激しい雨の降る所があるでしょう。雷を伴う所もある見込みです。
 これから、24日朝までの24時間に予想される雨量は、多い所で70ミリに達するでしょう。

[風・波の予想]
 23日昼前まで西の風が強く、
 最大風速は 陸上で   12メートル、
          海上で   20メートル
 波の高さは 佐渡で  2.5メートル、
       上中下越で  3メートル
に達する見込みです。

[防災事項]
 土砂災害や低地の浸水、落雷、突風、ひょうに注意して下さい。
 海上では強風、高波に注意して下さい。

229 :名無しSUN:2005/11/03(木) 19:58:43 ID:ZGxZFsMH
今年の飯豊の初観雪はいつだろう。もう降った?

230 :名無しSUN:2005/11/04(金) 22:23:50 ID:DIfWfbKR
>>229
飯豊ってこれ?
http://science4.2ch.net/test/read.cgi/sky/1123341769/95


231 :名無しSUN:2005/11/05(土) 01:50:44 ID:+sSYzpvz
          /
          ヾ
         //  ズ
         \ヽ、  ド
         / /  l
        /  /    ン
        ヾ  \
        /   丶
        / ,、_,、 /
 キタ━━━━(゚∀゚)━━━━ !!!!!!!!!
      /. `i   i´ \
           j/ヽ'


232 :名無しSUN:2005/11/06(日) 19:54:29 ID:MvPIv0O+

   / ̄ ヽ  ピヨ ピヨ
    |^◇^ ヽ  
   (     )  
    ''ゝ'''ゝ´

233 :名無しSUN:2005/11/12(土) 05:07:58 ID:+ILCe5UF
  ∧__,,∧
  (´‐ω‐) ただいま調整中・・・ とりあえずこれでガマン 再うp予定アリ
  ( つ旦O
  と_)_)

234 :名無しSUN:2005/11/14(月) 14:00:08 ID:4DgJQDon
平成17年11月14日04時07分 新潟地方気象台発表

下越」雷注意報」解除」
中越」雷注意報」解除」
((中下越に発表していた雷注意報を解除します。))
新潟地域 [解除]雷注意報
岩船地域 [解除]雷注意報
新発田地域 [解除]雷注意報
五泉地域 [解除]雷注意報
長岡地域 [解除]雷注意報
三条地域 [解除]雷注意報
魚沼北部地域 [解除]雷注意報
柏崎地域 [解除]雷注意報
魚沼南部地域 [解除]雷注意報
十日町地域 [解除]雷注意報
上越東頸城地域 発表注意報・警報はなし
糸魚川地域 発表注意報・警報はなし
妙高地域 発表注意報・警報はなし
佐渡 発表注意報・警報はなし

235 :名無しSUN:2005/11/15(火) 13:56:08 ID:cc50Ig5/
北陸地方 1か月予報
(11月12日から12月11日までの天候見通し)

                                  平成17年11月11日
                                   新潟地方気象台 発表
<予想される向こう1か月の天候>

向こう1か月の出現の可能性が最も大きい天候は以下のとおりです。
平年と同様に曇りや雨の日が多いでしょう。
向こう1か月の気温は平年並でしょう。降水量は平年並でしょう。
日照時間は平年並でしょう。

週別の気温は、1週目は平年並、2週目は平年並、3〜4週目は平年並でしょう。



236 :名無しSUN:2005/11/21(月) 21:33:22 ID:z2N/Mk38
          /
          ヾ
         //  ズ
         \ヽ、  ド
         / /  l
        /  /    ン
        ヾ  \
        /   丶
        / ,、_,、 /
 キタ━━━━(゚∀゚)━━━━ !!!!!!!!!
      /. `i   i´ \
           j/ヽ'

237 :名無しSUN:2005/11/21(月) 22:36:11 ID:qEqKpKC3
おさまったかな?@旧新津

238 :名無しSUN:2005/11/22(火) 16:06:14 ID:82Fl8w0N
RJSN 200900Z 200918 01014KT 9999 SCT035 BECMG 1214 14006KT

239 :名無しSUN:2005/11/26(土) 00:22:15 ID:teXpGsRw
停電のおまけ付き
          /
          ヾ
         //  ズ
         \ヽ、  ド
         / /  l
        /  /    ン
        ヾ  \
        /   丶
        / ,、_,、 /
 キタ━━━━(゚∀゚)━━━━ !!!!!!!!!
      /. `i   i´ \
           j/ヽ'

240 :名無しSUN:2005/11/27(日) 11:49:31 ID:tYW1T+uq
またまた
          /
          ヾ
         //  ズ
         \ヽ、  ド
         / /  l
        /  /    ン
        ヾ  \
        /   丶
        / ,、_,、 /
 キタ━━━━(゚∀゚)━━━━ !!!!!!!!!
      /. `i   i´ \
           j/ヽ'

241 :名無しSUN:2005/11/28(月) 23:20:29 ID:SnWPHQuV
低気圧に関する新潟県気象情報 第1号
平成17年11月28日05時35分 新潟地方気象台発表

新潟県では、29日には南のち西の風が海上や海岸を中心に非常に強く吹き、大しけとなるでしょう。
[要因]
 29日には、日本海北部で低気圧が急速に発達し、冬型の気圧配置が強まる見込みです。
[風、波の予想]
 29日に予想される最大風速は、
  南のち西の風 
  佐渡   陸上で23メートル
       海上で25メートル
  上中下越 陸上で18メートル
       海上で21から23メートル
  
 波の高さは、
  佐渡、下越で7メートル
  上中越で  5メートル
 の見込みです。       
[防災事項]
 暴風と高波に警戒して下さい。
 また、前線通過と寒気の流入により、落雷や突風にも注意してください。


242 :名無しSUN:2005/11/28(月) 23:21:57 ID:SnWPHQuV
低気圧に関する新潟県気象情報 第2号
平成17年11月28日18時00分 新潟地方気象台発表

新潟県では、海上を中心に29日明け方から西の風が非常に強く吹き、佐渡や下越では大しけとなるでしょう。
暴風や高波に警戒して下さい。
[要因]
 29日には、日本海北部で低気圧が急速に発達し、冬型の気圧配置が強まる見込みです。
[風、波の予想]
 29日に予想される最大風速は、
  南のち西の風 
  佐渡   陸上で21メートル
       海上で25メートル
  上中下越 陸上で16メートル
       海上で23メートル
  
 波の高さは、
  佐渡、下越で7メートル
  上中越で  5メートル
 の見込みです。       

[防災事項]
 暴風や高波に警戒して下さい。
 また、前線通過と寒気の流入により、落雷や突風にも注意してください。
 なお、29日夜は山沿いを中心に雨が雪に変わり、積雪となる所もある見込みです。
 交通機関は降雪による視程障害や交通障害に注意して下さい。

243 :名無しSUN:2005/11/29(火) 21:58:33 ID:yuFzJWRx
低気圧に関する新潟県気象情報 第3号
平成17年11月29日05時20分 新潟地方気象台発表

新潟県では、急速に発達する低気圧の影響で、29日から30日にかけて、
南西又は北西の風が海上や海岸を中心に非常に強く吹き、下越、佐渡の海上では大しけとなるでしょう。
[要因]
低気圧が日本海で急速に発達しながら北東へ進んでいます。低気圧からのびる寒冷前線が
29日朝のうちに県内を通過する見込みです。29日夜から30日は
寒気が南下して冬型の気圧配置が強まる見込みです。
[風、波の予想]
29日は南西又は北西の風、30日は西又は北西の風で
最大風速は
 海上では20から25メートル
 陸上では上中下越で18メートル
     佐渡で23メートル
の見込みです。
 
29日から30日にかけての波の高さは、
 下越、佐渡で6から7メートル
 上中越で5メートル
に達する見込みです。       
[防災事項]
 暴風と高波に警戒して下さい。
 また、29日は前線の通過と寒気の流入により落雷や突風にも注意してください。
 なお、29日夜から30日にかけて、雨が雪に変わる所があるでしょう。
山沿いでは積雪となる所もある見込みです。
交通機関は降雪による視程障害や積雪による交通障害に注意して下さい。
[特記事項]
現在、暴風警報が佐渡、
   波浪警報が佐渡、下越に発表中です。

244 :名無しSUN:2005/12/02(金) 23:41:24 ID:wHapIx6e
強い冬型の気圧配置に関する新潟県気象情報 第1号
平成17年12月2日06時30分 新潟地方気象台発表

県内では3日から4日かけて上空に強い寒気が流れ込むため、海や山を中心
に荒れた天気となる見込みです。山沿いではまとまった雪となり、平地でも
積雪となるおそれがあります。また、強風や高波に注意が必要です。

[要因]
 3日から4日かけて、北海道付近で低気圧が発達し、冬型の気圧配置が強
まる見込みです。また、3日朝には輪島の上空約5500メートルでおよそ
氷点下33℃の、この冬一番の寒気が入る見込みです。

[防災事項]
 山沿いではまとまった雪となり、平地でも積雪となるおそれがあります。
交通機関等は積雪に対する備えが必要となるでしょう。
 2日夜から海上や海岸を中心に北西の風が強くなり、3日には暴風となる
おそれもあります。波も2日から次第に高くなり、4日にかけてしけるでし
ょう。風雪や高波に注意して下さい。
 また、大気の状態が不安定となるため、落雷や突風にも注意して下さい。

[特記事項] 
今後、気象台の発表する注意報・警報、気象情報に留意して下さい。



245 :名無しSUN:2005/12/02(金) 23:43:40 ID:wHapIx6e
強い冬型の気圧配置に関する新潟県気象情報 第2号
平成17年12月2日17時20分 新潟地方気象台発表

県内では、3日から4日にかけては上空に強い寒気が流れ込むため、海や山
を中心に荒れた天気となる見込みです。山沿いでは大雪となる所もあるでし
ょう。平地でも雪となる所もあるでしょう。また、暴風や高波に警戒して下さい。
[要因]
3日から4日かけて、千島近海で低気圧が発達し、冬型の気圧配置が強まる
見込みです。また、輪島の上空約5500メートルにはおよそ氷点下33℃の、
この冬一番の寒気が入る見込みです。
[量的予想]
最大風速は3日から4日にかけて西又は北西の風
  佐渡の陸上、海上で20メートル
     下越の陸上で18メートル
        海上で20メートル
 上中越の陸上、海上で18メートルの見込みです。

3日から4日にかけての波の高さは
 下越、佐渡では6メートル
 上中越では5メートルに達する見込みです。

3日夕方までの24時間降雪量は多いところで
 平野部で5から10センチ
 山沿いで40から60センチの見込みです。
         
[防災事項]
佐渡、下越では暴風や高波に警戒して下さい。
山沿いでは大雪となる所もあるでしょう。平地でも雪となる所もあるでしょう。
交通機関等は降雪による視程障害、積雪による交通障害に注意して下さい。
また、大気の状態が不安定となるため、落雷や突風にも注意して下さい。

246 :名無しSUN:2005/12/06(火) 08:31:09 ID:xKxdnjNH
新潟はもう雪か?
山古志村はどうなったんだろうか?


247 :名無しSUN:2005/12/14(水) 21:03:18 ID:QYeJdKQO
。゚ o  。  。゚ o  
    (~) o   ゚ o  。 。 ゚  。  
  γ´⌒`ヽ  o   ゚ o   ゚   o
  .{i:i:i:i:i:i:i:i:}   o ゚     ゚   ゚
  (*‘ω‘ *)   o 。 ゚   (><; ) さむいんです・・・><
  (::::::::::.r:)  。 。    ゚  (つと )
   じ--J   o  。 o ゚     し--J


   (~) o   ゚ 。  。 。 ゚  。  
 γ´⌒`ヽ  o   ゚ o   ゚   o
  {i:i:i:i:i:i:i:i:}   。 ゚  。   ゚   ゚
  (* ‘ω‘)   ゚ 。 ゚   (((><; )))
  (::::::::::.r:)  。 。    ゚  (((つと )))
   じ--J     。 ゚   o  ∫し--J∬


 ∧ ∧   。゚ o  。   o 
(*‘ω‘ *)  ちんぽっぽ  ゚   (~)  
 (   ) ゚ o     o 。  γ´⌒`ヽ
  v v     ゚         {i:i:i:i:i:i:i:i:}
      ぼいんっ 。     (>< *)
   川   。 。     ゚  ゚(::::::::::.r:)
 ( (  ) )   ゚   。   ゚    じ--J

248 :名無しSUN:2005/12/22(木) 23:20:37 ID:TDgg7h8C
大変ね

249 :名無しSUN:2005/12/24(土) 12:56:50 ID:mvlGorNk
吹雪キター

250 :名無しSUN:2005/12/24(土) 14:21:19 ID:VA2DBLUg
十日町、-1℃で18mmっていったい‥。
アラレとかで降ってる?

251 : 【大吉】 :2006/01/01(日) 00:53:55 ID:m81+xSza
    ┏━━━ / |━━━━━┓
    ┗┳┳━ |_| ━━━┳┳┛
      ┃┃ /  ヽ     ┃┃
    ┏┻┻ |======| ━━┻┻┓
    ┗┳┳ ヽ__ ¶_ ノ ━━┳┳┛
      ┃┃ (/)     ┃┃
      ┃┃ (/)     ┃┃
    凸┃┃ (/)     ┃┃凸
    Ш┃┃ (/)     ┃┃Ш
    .|| ┃┃ (/)     ┃┃.||
  ∧_∧   (/) ∧_∧  ∧ ∧
  ( ・∀・)  (/)(´∀` )  (゚Д゚ )
  (つ  つミ (/)(⊃⊂ ) ⊂  ⊃
  |_|_|_I(/)_|_|_|__|  |
  /////ノ,,,,,,ヽ ////||  |〜
////////////  |∪∪
| ̄ ̄ ̄ ̄ ̄ ̄ ̄ ̄ ̄ ̄ ̄|  |
|        奉  納        |

252 :名無しSUN:2006/04/13(木) 01:45:05 ID:L+LJvIaB
   ,r羔ァ、
   q^ヮ^p
  ,r.`ニ´.、

253 :名無しSUN:2006/04/23(日) 04:38:10 ID:oCc461ox
 

254 :名無しSUN:2006/05/26(金) 15:59:05 ID:HLLb/1nr
  ,、__,、 
 (´-ェ-) 日照不足

255 :名無しSUN:2006/07/01(土) 01:03:51 ID:OvFxdAY1
平成18年 6月30日22時51分 新潟地方気象台発表

新潟地域」大雨,洪水警報」雷注意報」
岩船地域」大雨,雷,洪水注意報」
新発田地域」大雨,雷,洪水注意報」
五泉地域」大雨,洪水警報」雷注意報」
長岡地域」大雨,洪水警報」雷注意報」
三条地域」大雨,洪水警報」雷注意報」
魚沼北部地域」大雨,雷,洪水注意報」
柏崎地域」大雨,洪水警報」雷注意報」
魚沼南部地域」大雨,雷,洪水注意報」
十日町地域」大雨,雷,洪水注意報」
上越」大雨,雷,洪水注意報」
佐渡」大雨,雷,洪水注意報」
((長岡、三条、柏崎、新潟、五泉地域では、1日明け方まで激しい雨が降
り、3時間で80ミリ、24時間で160ミリに達する所があるでしょう。
低地の浸水、河川の氾濫や土砂災害に警戒して下さい。))

256 :名無しSUN:2006/07/02(日) 18:02:54 ID:lUem7eJu
風が強いです。

257 :名無しSUN:2006/07/13(木) 12:04:11 ID:HcAgXjuN
五泉というか、村松の雨すげー。
ひらせいの駐車場とかマジヤバイ。

258 :名無しSUN:2006/07/19(水) 20:02:27 ID:3CJAbh7y
たのむから明日晴れてくれ!

259 :名無しSUN:2006/07/27(木) 15:24:54 ID:LJl9Mz3/
こちら新潟市 東は晴れてるけど西は曇ってる
今夜星見たいぜ

260 :名無しSUN:2006/08/11(金) 12:36:49 ID:jmFpv1hA
明日雨降らねーかなー

261 :名無しSUN:2006/08/12(土) 08:33:49 ID:pJdgS2bd
          /
          ヾ
         //  ズ
         \ヽ、  ド
         / /  l
        /  /    ン
        ヾ  \
        /   丶
        / ,、_,、 /
 キタ━━━━(゚∀゚)━━━━ !!!!!!!!!
      /. `i   i´ \
           j/ヽ'

262 :名無しSUN:2006/08/12(土) 08:45:59 ID:Da4JQj4d
おービカビカいってる

263 :名無しSUN:2006/08/12(土) 08:50:55 ID:AdH2ykiq
>>260
おまいのせいだ!

264 :名無しSUN:2006/08/13(日) 15:58:18 ID:Vd43Angf
もう雨降らんのか?
昨日のあれだけではだめろ!

265 :名無しSUN:2006/08/17(木) 16:53:25 ID:ds3d0Ni2
          /
          ヾ
         //  ズ
         \ヽ、  ド
         / /  l
        /  /    ン
        ヾ  \
        /   丶
        / ,、_,、 /
 キタ━━━━(゚∀゚)━━━━ !!!!!!!!!
      /. `i   i´ \
           j/ヽ'

266 :名無しSUN:2006/08/17(木) 18:47:58 ID:J0D1Cpm9
新潟市南西部付近落雷激しすぎ!


267 :名無しSUN:2006/08/17(木) 18:53:05 ID:iGDR6D9w
雷コエー

268 :名無しSUN:2006/08/17(木) 18:59:21 ID:mchVShCY
どっかに落雷してないだろうか

269 :名無しSUN:2006/08/18(金) 17:20:22 ID:DRM7L+k7
>>268


各地で落雷による停電相次ぐ

 県内は17日夕から、フェーン現象の影響で大気の状態が不安定になったため、局地的に雷を伴った激しい雨が降った。落雷による停電や、落雷が原因とみられる火災が相次いだほか、JRでも雨による運休が出た。
 落雷のため、同日午後5時ごろから新潟、三条、燕、加茂、五泉、川口の6市町で最大で計約1万1600戸が停電したが、同11時半前までにすべて復旧した。

新潟日報2006年8月18日
ttp://www.niigata-nippo.co.jp/pref/index.asp?cateNo=1&newsNo=26786

270 :名無しSUN:2006/08/20(日) 14:03:53 ID:6XrVREnu
山の方でゴロゴロ鳴り出してキター!!@長岡
これで一雨降れば高温ランクとはお別れかな。

271 :名無しSUN:2006/08/21(月) 00:38:03 ID:h9jyQp9g
             ,,;⊂⊃;,、  。   アーメヨ フレフレ
            (∩・∀・) /》       カッパッパ♪
            【(   #)つ .巛
             し'し'


      。   ,,;⊂⊃;,、         ライジン、フウジン
      》\ (・∀・* )             オコシャンセ♪
      巛 ⊂(#   つ
          `J`J


            ,,;⊂⊃;,、 。     オテント カクセヨ
           ( *・∀・)/》         カッパッパ♪
           【(  ⊃つ.巛
             し'、ノ

272 :名無しSUN:2006/08/21(月) 10:02:58 ID:6jRxnXqV
気象庁の6時の天気図 手書だぞ
雷神が海で暴れているし 恵みの雨がほすい

273 :名無しSUN:2006/08/21(月) 23:04:40 ID:xnb/wZw0
雨が降った ∩( ・ω・)∩ ばんじゃーい

274 :魚沼:2006/08/22(火) 11:20:30 ID:QZeM7Rh8
       /
          ヾ
         //  ズ
         \ヽ、  ド
         / /  l
        /  /    ン
        ヾ  \
        /   丶
        / ,、_,、 /
 キタ━━━━(゚∀゚)━━━━ !!!!!!!!!
      /. `i   i´ \
           j/ヽ'



275 :名無しSUN:2006/09/07(木) 16:41:11 ID:f0DOtp6f
ゴロゴロキター!!@長岡

276 :名無しSUN:2006/09/07(木) 17:04:45 ID:Ssl+4wLI
TAF RJSS 070300Z 070312 08007KT 9999 FEW008 BKN015 BKN040
BECMG 0911 4000 -SHRA BR FEW005 BKN008 BKN015

TAF RJSS 070300Z 071206 04006KT 4000 -SHRA BR FEW005 BKN008 BKN015
TEMPO 1218 3000 SHRA BR FEW003 BKN005 BKN008 FEW020CB
          /
          ヾ
         //  ズ
         \ヽ、  ド
         / /  l
        /  /    ン
        ヾ  \
        /   丶
        / ,、_,、 /
 キタ━━━━(゚∀゚)━━━━ !!!!!!!!!
      /. `i   i´ \
           j/ヽ'

277 :名無しSUN:2006/09/07(木) 19:36:41 ID:bl7PO2Vu
岩船郡って雷多いの?

278 :名無しSUN:2006/09/07(木) 20:48:23 ID:2xL9kFzB
      ,一-、
     / ̄ l |   / ̄ ̄ ̄ ̄ ̄ ̄ ̄ ̄ ̄ ̄
    ■■-っ < んなーこたーない
    ´∀`/    \__________
   __/|Y/\.
 Ё|__ | /  |
     | У..  |

279 :名無しSUN:2006/09/10(日) 14:17:34 ID:vy+oraun
RJSS 100429Z 100412 14006KT 8000 FEW006 BKN020
TEMPO 0409 FEW004 BKN006 BKN015
TEMPO 0912 4000 SHRA BR FEW003 BKN005 BKN015 FEW020CB

 カミナリ いやだな・・・  ('A`)

280 :名無しSUN:2006/09/10(日) 14:38:43 ID:vy+oraun
                   _
                  ヘ\     ラジャ!!
                ^/~ヽ;;;;;;‐- ,..._
                 ~l/`‐、::::::_,‐'''´
                    i./
       __
       ヘ. \
     _  ヘ  \
   _ /::::::\ヘ    \.........___
   ヽ/::::::::::::::ヽ;;;;;;;;;;;;;;;;;;;;;;;;;;;;;;;;;`ニ‐-、..._  これから柏崎を爆撃する
    ^l  /ヽ:::::::::::::::::::::::::::::::::::::::::::::::::;;;::..ィ‐
      |::/  `‐-::::::::::::::::::::::::::::/ ̄ ̄
     ~      |::::::::::::/ ̄
               |::::::/
              | /
             ̄

          こんなイメージかな・・・・   ('A`)

281 :名無しSUN:2006/09/10(日) 15:33:46 ID:TeNm1aeF
>>280
今日は片貝爆撃ぢゃねーのか?

282 :名無しSUN:2006/09/10(日) 16:22:28 ID:D7SMRNmM
柏崎はもうすでに爆撃済みだよ
あの時間帯の降水短時間予報は新潟へ進むコースだったけど
14時40分頃から微妙にコースを変えた

これでまた涼しい夜が戻ってくる ∩( ・ω・)∩ ばんじゃーい

283 :名無しSUN:2006/09/15(金) 12:38:23 ID:IwcvOiWF
久しぶりにからっと晴れて気持ちのいい天気だな。

284 :名無しSUN:2006/09/17(日) 10:15:10 ID:9K5uFFQV

                      _ ,/' 、
         ,__           〈  \ \、` 、         __
         /  /.,;"''-,,,_ .r‐-:,,, \  \ \/      ,,,, ::::/   /
        /   /,,;::::::::::::::"'|   |.:;;,,,.゙:, ̄ ̄    ,,, ,―――‐´   '―――‐、
      /   /;:::::::::::::::::::::::|   |;::::::::::;,ヽ       ,,;;;:::'--、__  ____    /
     /   /,;::::::::::::::::::::: : |   |;:::::::::::::;;,,;、   .,,;;:;;゙゙,,,,,,,;;;;;;:::::/  /::::::::::::/  /
    ,/   /,,;:::::::::::::::::::::::::::|  |;::::::::::::::::::;;;::;;:::;;;;;:::::::::::::::::::/  /:::::::::::::/  /
   ./   /,,;::::::::::::::::::::::::::::: |  |.;::::::::::::::::;:゙`゙;;::::::::::::::::::::::/  ./::::::::::: /  /
   /  /.;,,::::::::::::::::::::::;;;;;  |  |.;::::::::::::;:゙`   ゙゙;:::::::::::::/  /:::::::::::::/  /
  .ヘ__/;::::::;;;;;゙゙゙゙゙″    |  |.;:::::::;:゙`     .゙゙;;:::/  ,/:::::::::::::/  /
                    ;|  |.:;:;;゙`        ゙゙'-、_/ .::::::::::/  /
                   ゙''''''"’                 ゙゙'''/__,/



285 :名無しSUN:2006/09/19(火) 00:40:14 ID:7rKjODdy
台風13号 宮崎・延岡市の竜巻 どうして起きた

 竜巻とは積乱雲や積雲に伴って発生する、強い上昇気流をもった激しい渦巻きのことをいう。
規模の大きさは日本人研究者にちなんで「藤田スケール」と呼ばれ、レベルは「F」で示される。
米国では年間750個もの竜巻が発生し、風速が毎秒93〜142メートルの「F4」「F5」の
大規模な竜巻が年間2〜3%発生し、多くの死者を出すなど被害も大きい。
 日本では発生件数は少なく、大半は風速が毎秒17〜49メートルの「F0」「F1」で、
被害は煙突やテレビのアンテナが壊れたり、木が倒れるなどの程度だ。
過去で規模が大きいものは80人の死傷者が出た千葉県茂原市(90年)、
453人が負傷した愛知県豊橋市(99年)の「F3」などがある。

竜巻には二つのでき方があり、一つは冷たい空気と暖かい空気がぶつかる
前線付近で空気の渦が発生、その上空を強い上昇気流を持つ積乱雲が通って渦を引き延ばすタイプ。
このタイプは規模が小さく、数分間でおさまる。
もう一つは内部に直径5〜10キロの小さな低気圧を持つ特殊な積乱雲「スーパーセル」が起こすタイプ。
これは持続時間が長く、数十分続くこともあり、被害が大きくなりやすい。
茂原市と豊橋市のケースもこのタイプと確認されている。
 今回の宮崎県延岡市の竜巻は17日午後2時過ぎに発生。
市南部から市街地を北へ縦断し、被害の範囲は幅30〜50メートル、長さ7〜8キロにわたっているという。
宮崎地方気象台によると、宮崎県沿岸部は台風が北上する際、
積乱雲の塊が海上からいくつも入って上空を覆い、竜巻が発生しやすくなるという。
昨年9月にも台風の北上に伴い、宮崎市内で「F1〜2」の竜巻が確認されている。
同気象台は「調査してみないと分からないが、列車が転覆するほどの突風なので昨年よりも
大きな規模になるのでは」としている。

286 :名無しSUN:2006/09/19(火) 11:43:35 ID:vXp6+p54
台風13号で 梨はあんまり落ちんかった。
佐渡の被害は知らんが。

287 : 株価【50】 :2006/11/06(月) 13:30:47 ID:Oy21piHs
新潟レーダーは機器更新のため12月5日まで休止しております。
このため、北陸地方のエコーが弱く表現されることがあります。

288 :名無しSUN:2006/11/07(火) 13:54:02 ID:goPko+Vk
風つえー!

289 :名無しSUN:2006/11/07(火) 17:27:40 ID:hCk1WlcB
何だこの風

290 : 株価【60】 :2006/11/24(金) 23:36:51 ID:ItCczFDM
ドップラーレーダー運用開始 マダァ-? (・∀・ )っ/凵⌒☆チンチン

291 :名無しSUN:2006/12/02(土) 13:10:33 ID:i/hZVmXZ
(><;) カミナリはもういやです・・・

292 :名無しSUN:2006/12/03(日) 14:05:01 ID:iGnqCm1v
いきなり本格的に雪降ってキタ━━━━(゚∀゚)━━━━@新潟市

293 :名無しSUN:2006/12/03(日) 14:24:31 ID:vBZ0rxfQ
新潟県内で、1番雪の降らない所、積雪の少ない所ってどこ?

294 :名無しSUN:2006/12/03(日) 14:29:23 ID:Dc6C/YVZ
新潟島の西側だと思う

295 :名無しSUN:2006/12/03(日) 14:48:52 ID:vBZ0rxfQ
佐渡島のこと?

296 :名無しSUN:2006/12/03(日) 14:52:47 ID:9zkdAj6I
>>294
新潟島 イイ!

297 :新潟島の住民:2006/12/03(日) 19:20:25 ID:eqoCs0zh
>>295
マジレスすると新潟市の旧市街地。
信濃川と関屋分水と日本海で遮断されて島みたいになってしまったエリアだよ(^^ゞ

298 :名無しSUN:2006/12/03(日) 19:45:46 ID:Dc6C/YVZ
「新潟島」でググ。
新潟島 の検索結果のうち 日本語のページ 約 34,700 件 (0.16 秒)


299 :名無しSUN:2006/12/08(金) 10:24:33 ID:Iz//2doi
ただ、体感気温では新潟島は県内で一番寒い。

300 :名無しSUN:2006/12/15(金) 13:13:49 ID:ISgJ9mUG
おい新潟島も海になるらしいよ。みんな早く引っ越したほうがいいよ。俺、マンション買わなくてマジ良かったよ。 三条か長岡あたりに引っ越すわ。

301 : 【大吉】 【471円】 :2007/01/01(月) 23:59:14 ID:8JjUM/t0
良い天気の元旦でした。

302 :名無しSUN:2007/01/06(土) 04:38:36 ID:PBUJMinZ
風が強くなってきた…

303 :名無しSUN:2007/01/06(土) 06:49:14 ID:O32oCHn7
異常なし@新潟市太夫浜

304 :上越市:2007/01/07(日) 09:36:41 ID:ez6vFsn1
風強いけど、雪なしっ!

305 :名無しSUN:2007/01/07(日) 10:42:17 ID:TQmF62qv
津南は今何センチ?

306 :名無しSUN:2007/01/07(日) 11:52:01 ID:WSJ8Sk+x
>>305
津南11時 21cm

307 :名無しSUN:2007/01/07(日) 13:03:30 ID:+j/+IbO8
age

308 :名無しSUN:2007/01/07(日) 13:26:32 ID:ez6vFsn1
風速16でた…。
まだ強くなるんでしょうか…。

309 :名無しSUN:2007/01/07(日) 15:46:31 ID:TAd/RjeI
強風で屋根のトタンが捲れる被害が複数出ている模様@長岡
アメダスだと新潟市付近よりも風が強いのかよ。

310 :名無しSUN:2007/02/03(土) 16:12:37 ID:rsYcEdxo
暴風雪、波浪の警報でたね。

今は、それが信じられないくらい良い天気だけど。

311 :名無しSUN:2007/02/03(土) 23:11:29 ID:LWM+Oi8v
暴風キタ@新潟市
窓を閉めていても揺れるカーテン

312 :名無しSUN:2007/02/14(水) 17:00:44 ID:slrqoAEE
風が強いと書きこみたくなる

117 KB
■ このスレッドは過去ログ倉庫に格納されています

★スマホ版★ 掲示板に戻る 全部 前100 次100 最新50

read.cgi ver 05.04.00 2017/10/04 Walang Kapalit ★
FOX ★ DSO(Dynamic Shared Object)